N577BF NH16-KPNS
Flight info
| Callsign | N577BF |
|---|---|
| Flight time | 4h 59m |
| Altitude | 22000 |
| Route | SWALO Q75 BIZEX Q133 JFK Q419 LAURN Q22 KIDDO/N0271F240 Q22 CATLN |
| Aircraft | PC12/L-SDFGRWY/S |
Departure
| Time | 2026-04-28 17:06 |
|---|---|
| Airport | Brookline Airport (NH16) |
Arrival
| Time | 2026-04-28 22:05 |
|---|---|
| Airport | Pensacola International Airport (KPNS) |
| Time | Latitude | Longitude | Altitude | Speed | Heading |
|---|---|---|---|---|---|
| 2026-04-28 17:00 | 42.73930 | -71.70772 | 414 ft | 0 kts | 80° |
| 2026-04-28 17:04 | 42.73933 | -71.70736 | 411 ft | 11 kts | 96° |
| 2026-04-28 17:04 | 42.73935 | -71.70689 | 409 ft | 1 kts | 353° |
| 2026-04-28 17:05 | 42.74377 | -71.70747 | 409 ft | 92 kts | 356° |
| 2026-04-28 17:05 | 42.75035 | -71.70887 | 755 ft | 99 kts | 343° |
| 2026-04-28 17:05 | 42.75610 | -71.71566 | 975 ft | 130 kts | 296° |
| 2026-04-28 17:06 | 42.75275 | -71.74150 | 1568 ft | 161 kts | 218° |
| 2026-04-28 17:06 | 42.74328 | -71.74920 | 2041 ft | 157 kts | 197° |
| 2026-04-28 17:06 | 42.72291 | -71.76016 | 2976 ft | 159 kts | 198° |
| 2026-04-28 17:07 | 42.71290 | -71.76623 | 3450 ft | 160 kts | 198° |
| 2026-04-28 17:07 | 42.70276 | -71.77261 | 3928 ft | 161 kts | 199° |
| 2026-04-28 17:07 | 42.69268 | -71.77912 | 4405 ft | 161 kts | 200° |
| 2026-04-28 17:07 | 42.68264 | -71.78570 | 4842 ft | 164 kts | 200° |
| 2026-04-28 17:08 | 42.67240 | -71.79247 | 5309 ft | 164 kts | 200° |
| 2026-04-28 17:08 | 42.66214 | -71.79929 | 5747 ft | 165 kts | 201° |
| 2026-04-28 17:08 | 42.65183 | -71.80615 | 6174 ft | 166 kts | 200° |
| 2026-04-28 17:08 | 42.64149 | -71.81303 | 6589 ft | 167 kts | 201° |
| 2026-04-28 17:09 | 42.63110 | -71.81997 | 7018 ft | 167 kts | 201° |
| 2026-04-28 17:09 | 42.62058 | -71.82697 | 7406 ft | 169 kts | 202° |
| 2026-04-28 17:09 | 42.60995 | -71.83406 | 7779 ft | 172 kts | 202° |
| 2026-04-28 17:09 | 42.59927 | -71.84119 | 8182 ft | 171 kts | 202° |
| 2026-04-28 17:10 | 42.58856 | -71.84832 | 8536 ft | 174 kts | 201° |
| 2026-04-28 17:10 | 42.57767 | -71.85558 | 8906 ft | 174 kts | 203° |
| 2026-04-28 17:10 | 42.56680 | -71.86282 | 9264 ft | 175 kts | 202° |
| 2026-04-28 17:10 | 42.55563 | -71.87025 | 9586 ft | 178 kts | 203° |
| 2026-04-28 17:11 | 42.54469 | -71.87753 | 9926 ft | 179 kts | 203° |
| 2026-04-28 17:11 | 42.53352 | -71.88496 | 10284 ft | 178 kts | 203° |
| 2026-04-28 17:11 | 42.52226 | -71.89245 | 10602 ft | 180 kts | 202° |
| 2026-04-28 17:11 | 42.51107 | -71.89988 | 10913 ft | 181 kts | 204° |
| 2026-04-28 17:12 | 42.49968 | -71.90745 | 11222 ft | 183 kts | 203° |
| 2026-04-28 17:12 | 42.48828 | -71.91502 | 11519 ft | 183 kts | 204° |
| 2026-04-28 17:12 | 42.47681 | -71.92262 | 11790 ft | 186 kts | 203° |
| 2026-04-28 17:12 | 42.46522 | -71.93033 | 12117 ft | 184 kts | 204° |
| 2026-04-28 17:13 | 42.45352 | -71.93808 | 12355 ft | 189 kts | 205° |
| 2026-04-28 17:13 | 42.44178 | -71.94587 | 12649 ft | 189 kts | 205° |
| 2026-04-28 17:13 | 42.42997 | -71.95370 | 12910 ft | 191 kts | 205° |
| 2026-04-28 17:13 | 42.41808 | -71.96157 | 13205 ft | 190 kts | 206° |
| 2026-04-28 17:14 | 42.40616 | -71.96947 | 13437 ft | 193 kts | 206° |
| 2026-04-28 17:14 | 42.39423 | -71.97736 | 13749 ft | 191 kts | 206° |
| 2026-04-28 17:14 | 42.38209 | -71.98539 | 13925 ft | 196 kts | 206° |
| 2026-04-28 17:14 | 42.36992 | -71.99344 | 14208 ft | 193 kts | 206° |
| 2026-04-28 17:15 | 42.35791 | -72.00138 | 14422 ft | 196 kts | 206° |
| 2026-04-28 17:15 | 42.34541 | -72.00964 | 14644 ft | 197 kts | 205° |
| 2026-04-28 17:15 | 42.33305 | -72.01780 | 14917 ft | 197 kts | 205° |
| 2026-04-28 17:15 | 42.32063 | -72.02600 | 15138 ft | 201 kts | 205° |
| 2026-04-28 17:16 | 42.30812 | -72.03425 | 15433 ft | 201 kts | 205° |
| 2026-04-28 17:16 | 42.29561 | -72.04251 | 15673 ft | 202 kts | 205° |
| 2026-04-28 17:16 | 42.28307 | -72.05077 | 15946 ft | 202 kts | 205° |
| 2026-04-28 17:16 | 42.27028 | -72.05920 | 16187 ft | 203 kts | 206° |
| 2026-04-28 17:17 | 42.25751 | -72.06762 | 16414 ft | 204 kts | 206° |
| 2026-04-28 17:17 | 42.24463 | -72.07610 | 16599 ft | 208 kts | 206° |
| 2026-04-28 17:17 | 42.23169 | -72.08461 | 16850 ft | 208 kts | 206° |
| 2026-04-28 17:17 | 42.21866 | -72.09319 | 17085 ft | 208 kts | 206° |
| 2026-04-28 17:18 | 42.20559 | -72.10178 | 17310 ft | 208 kts | 206° |
| 2026-04-28 17:18 | 42.19257 | -72.11033 | 17462 ft | 213 kts | 206° |
| 2026-04-28 17:18 | 42.17931 | -72.11903 | 17694 ft | 212 kts | 206° |
| 2026-04-28 17:18 | 42.16602 | -72.12776 | 17893 ft | 213 kts | 206° |
| 2026-04-28 17:19 | 42.15271 | -72.13650 | 18136 ft | 212 kts | 206° |
| 2026-04-28 17:19 | 42.13940 | -72.14523 | 18294 ft | 215 kts | 206° |
| 2026-04-28 17:19 | 42.12585 | -72.15411 | 18505 ft | 215 kts | 206° |
| 2026-04-28 17:19 | 42.11240 | -72.16293 | 18724 ft | 214 kts | 207° |
| 2026-04-28 17:20 | 42.09901 | -72.17170 | 18961 ft | 213 kts | 206° |
| 2026-04-28 17:20 | 42.09021 | -72.17747 | 19103 ft | 212 kts | 206° |
| 2026-04-28 17:20 | 42.07259 | -72.18924 | 19311 ft | 214 kts | 213° |
| 2026-04-28 17:20 | 42.06304 | -72.20409 | 19505 ft | 208 kts | 247° |
| 2026-04-28 17:21 | 42.05812 | -72.22212 | 19729 ft | 204 kts | 254° |
| 2026-04-28 17:21 | 42.05365 | -72.24023 | 19877 ft | 206 kts | 254° |
| 2026-04-28 17:21 | 42.04918 | -72.25843 | 20089 ft | 205 kts | 255° |
| 2026-04-28 17:22 | 42.04024 | -72.29459 | 20427 ft | 205 kts | 254° |
| 2026-04-28 17:22 | 42.03566 | -72.31301 | 20586 ft | 205 kts | 255° |
| 2026-04-28 17:22 | 42.03113 | -72.33115 | 20750 ft | 205 kts | 255° |
| 2026-04-28 17:23 | 42.02211 | -72.36728 | 21081 ft | 204 kts | 255° |
| 2026-04-28 17:23 | 42.01761 | -72.38519 | 21241 ft | 204 kts | 254° |
| 2026-04-28 17:23 | 42.01307 | -72.40327 | 21433 ft | 202 kts | 255° |
| 2026-04-28 17:23 | 42.00862 | -72.42101 | 21586 ft | 202 kts | 254° |
| 2026-04-28 17:24 | 42.00412 | -72.43893 | 21699 ft | 203 kts | 254° |
| 2026-04-28 17:24 | 41.99958 | -72.45697 | 21858 ft | 203 kts | 255° |
| 2026-04-28 17:24 | 41.99509 | -72.47482 | 22017 ft | 202 kts | 255° |
| 2026-04-28 17:24 | 41.99059 | -72.49267 | 22151 ft | 202 kts | 255° |
| 2026-04-28 17:25 | 41.98605 | -72.51073 | 22165 ft | 207 kts | 254° |
| 2026-04-28 17:25 | 41.97664 | -72.54806 | 22170 ft | 217 kts | 253° |
| 2026-04-28 17:25 | 41.97169 | -72.56762 | 22170 ft | 221 kts | 254° |
| 2026-04-28 17:26 | 41.96672 | -72.58730 | 22168 ft | 224 kts | 253° |
| 2026-04-28 17:26 | 41.96175 | -72.60689 | 22168 ft | 226 kts | 254° |
| 2026-04-28 17:26 | 41.95665 | -72.62700 | 22169 ft | 228 kts | 253° |
| 2026-04-28 17:26 | 41.95154 | -72.64715 | 22169 ft | 229 kts | 254° |
| 2026-04-28 17:27 | 41.94633 | -72.66766 | 22171 ft | 231 kts | 253° |
| 2026-04-28 17:27 | 41.94101 | -72.68790 | 22173 ft | 232 kts | 250° |
| 2026-04-28 17:27 | 41.93316 | -72.70713 | 22179 ft | 236 kts | 236° |
| 2026-04-28 17:27 | 41.92198 | -72.72334 | 22178 ft | 239 kts | 226° |
| 2026-04-28 17:28 | 41.90959 | -72.73824 | 22173 ft | 240 kts | 224° |
| 2026-04-28 17:28 | 41.88471 | -72.76863 | 22169 ft | 241 kts | 226° |
| 2026-04-28 17:28 | 41.87276 | -72.78398 | 22170 ft | 241 kts | 227° |
| 2026-04-28 17:29 | 41.86078 | -72.79970 | 22171 ft | 240 kts | 227° |
| 2026-04-28 17:29 | 41.84891 | -72.81548 | 22173 ft | 240 kts | 227° |
| 2026-04-28 17:29 | 41.83716 | -72.83124 | 22174 ft | 240 kts | 228° |
| 2026-04-28 17:30 | 41.81359 | -72.86308 | 22167 ft | 239 kts | 228° |
| 2026-04-28 17:30 | 41.79507 | -72.88821 | 22172 ft | 238 kts | 227° |
| 2026-04-28 17:30 | 41.78343 | -72.90403 | 22176 ft | 238 kts | 228° |
| 2026-04-28 17:31 | 41.77181 | -72.91981 | 22177 ft | 238 kts | 228° |
| 2026-04-28 17:31 | 41.74862 | -72.95135 | 22173 ft | 237 kts | 228° |
| 2026-04-28 17:32 | 41.72549 | -72.98277 | 22183 ft | 237 kts | 228° |
| 2026-04-28 17:32 | 41.71387 | -72.99853 | 22177 ft | 238 kts | 228° |
| 2026-04-28 17:32 | 41.70226 | -73.01428 | 22175 ft | 237 kts | 228° |
| 2026-04-28 17:32 | 41.69080 | -73.02982 | 22176 ft | 237 kts | 229° |
| 2026-04-28 17:33 | 41.67909 | -73.04569 | 22174 ft | 237 kts | 228° |
| 2026-04-28 17:33 | 41.66754 | -73.06133 | 22175 ft | 237 kts | 228° |
| 2026-04-28 17:33 | 41.65612 | -73.07677 | 22167 ft | 236 kts | 228° |
| 2026-04-28 17:33 | 41.64838 | -73.08726 | 22175 ft | 236 kts | 228° |
| 2026-04-28 17:34 | 41.63309 | -73.10793 | 22183 ft | 235 kts | 228° |
| 2026-04-28 17:34 | 41.62159 | -73.12347 | 22185 ft | 235 kts | 228° |
| 2026-04-28 17:34 | 41.61009 | -73.13901 | 22181 ft | 235 kts | 228° |
| 2026-04-28 17:34 | 41.59861 | -73.15452 | 22183 ft | 234 kts | 228° |
| 2026-04-28 17:35 | 41.58713 | -73.17001 | 22188 ft | 234 kts | 228° |
| 2026-04-28 17:35 | 41.57576 | -73.18534 | 22188 ft | 234 kts | 228° |
| 2026-04-28 17:35 | 41.56431 | -73.20077 | 22192 ft | 234 kts | 228° |
| 2026-04-28 17:35 | 41.55283 | -73.21624 | 22186 ft | 234 kts | 228° |
| 2026-04-28 17:36 | 41.54139 | -73.23164 | 22188 ft | 234 kts | 229° |
| 2026-04-28 17:36 | 41.53006 | -73.24690 | 22186 ft | 233 kts | 228° |
| 2026-04-28 17:36 | 41.51861 | -73.26230 | 22187 ft | 233 kts | 228° |
| 2026-04-28 17:36 | 41.50716 | -73.27769 | 22187 ft | 232 kts | 228° |
| 2026-04-28 17:37 | 41.49578 | -73.29298 | 22188 ft | 232 kts | 228° |
| 2026-04-28 17:37 | 41.48459 | -73.30801 | 22188 ft | 231 kts | 228° |
| 2026-04-28 17:37 | 41.47330 | -73.32323 | 22185 ft | 231 kts | 228° |
| 2026-04-28 17:37 | 41.46209 | -73.33855 | 22186 ft | 231 kts | 228° |
| 2026-04-28 17:38 | 41.45083 | -73.35394 | 22186 ft | 230 kts | 229° |
| 2026-04-28 17:38 | 41.43966 | -73.36920 | 22186 ft | 230 kts | 229° |
| 2026-04-28 17:38 | 41.42853 | -73.38440 | 22188 ft | 230 kts | 229° |
| 2026-04-28 17:38 | 41.41726 | -73.39977 | 22188 ft | 230 kts | 229° |
| 2026-04-28 17:39 | 41.40613 | -73.41495 | 22188 ft | 230 kts | 229° |
| 2026-04-28 17:39 | 41.39505 | -73.43002 | 22183 ft | 230 kts | 228° |
| 2026-04-28 17:39 | 41.37271 | -73.46043 | 22183 ft | 229 kts | 229° |
| 2026-04-28 17:40 | 41.36150 | -73.47565 | 22184 ft | 229 kts | 229° |
| 2026-04-28 17:40 | 41.35041 | -73.49072 | 22179 ft | 229 kts | 229° |
| 2026-04-28 17:40 | 41.33926 | -73.50586 | 22183 ft | 228 kts | 229° |
| 2026-04-28 17:40 | 41.32824 | -73.52083 | 22181 ft | 228 kts | 228° |
| 2026-04-28 17:41 | 41.31710 | -73.53593 | 22181 ft | 228 kts | 229° |
| 2026-04-28 17:41 | 41.30609 | -73.55087 | 22175 ft | 228 kts | 229° |
| 2026-04-28 17:41 | 41.29501 | -73.56589 | 22178 ft | 228 kts | 228° |
| 2026-04-28 17:41 | 41.28362 | -73.58085 | 22178 ft | 228 kts | 225° |
| 2026-04-28 17:42 | 41.27065 | -73.59293 | 22184 ft | 232 kts | 210° |
| 2026-04-28 17:42 | 41.25499 | -73.59909 | 22187 ft | 237 kts | 194° |
| 2026-04-28 17:42 | 41.23848 | -73.60161 | 22179 ft | 239 kts | 190° |
| 2026-04-28 17:42 | 41.22197 | -73.60381 | 22175 ft | 239 kts | 191° |
| 2026-04-28 17:43 | 41.20557 | -73.60669 | 22176 ft | 238 kts | 194° |
| 2026-04-28 17:43 | 41.18910 | -73.61025 | 22178 ft | 238 kts | 195° |
| 2026-04-28 17:43 | 41.17294 | -73.61437 | 22180 ft | 237 kts | 197° |
| 2026-04-28 17:43 | 41.15958 | -73.61803 | 22177 ft | 237 kts | 197° |
| 2026-04-28 17:44 | 41.14419 | -73.62237 | 22172 ft | 237 kts | 197° |
| 2026-04-28 17:44 | 41.12793 | -73.62700 | 22171 ft | 237 kts | 197° |
| 2026-04-28 17:44 | 41.11182 | -73.63165 | 22171 ft | 237 kts | 197° |
| 2026-04-28 17:44 | 41.09579 | -73.63630 | 22172 ft | 237 kts | 197° |
| 2026-04-28 17:45 | 41.07961 | -73.64102 | 22170 ft | 237 kts | 198° |
| 2026-04-28 17:45 | 41.06362 | -73.64569 | 22169 ft | 237 kts | 197° |
| 2026-04-28 17:45 | 41.04769 | -73.65036 | 22173 ft | 236 kts | 197° |
| 2026-04-28 17:45 | 41.03135 | -73.65514 | 22178 ft | 236 kts | 197° |
| 2026-04-28 17:46 | 41.01530 | -73.65986 | 22182 ft | 237 kts | 197° |
| 2026-04-28 17:46 | 40.99907 | -73.66460 | 22177 ft | 237 kts | 197° |
| 2026-04-28 17:46 | 40.98302 | -73.66931 | 22177 ft | 237 kts | 197° |
| 2026-04-28 17:46 | 40.96686 | -73.67404 | 22177 ft | 238 kts | 197° |
| 2026-04-28 17:47 | 40.95065 | -73.67879 | 22177 ft | 238 kts | 197° |
| 2026-04-28 17:47 | 40.93452 | -73.68351 | 22178 ft | 238 kts | 197° |
| 2026-04-28 17:47 | 40.91848 | -73.68820 | 22180 ft | 238 kts | 197° |
| 2026-04-28 17:47 | 40.90762 | -73.69139 | 22181 ft | 238 kts | 197° |
| 2026-04-28 17:48 | 40.88608 | -73.69768 | 22182 ft | 238 kts | 197° |
| 2026-04-28 17:48 | 40.86962 | -73.70248 | 22181 ft | 238 kts | 197° |
| 2026-04-28 17:48 | 40.85356 | -73.70718 | 22179 ft | 238 kts | 197° |
| 2026-04-28 17:48 | 40.83742 | -73.71189 | 22177 ft | 238 kts | 197° |
| 2026-04-28 17:49 | 40.82120 | -73.71662 | 22178 ft | 238 kts | 197° |
| 2026-04-28 17:49 | 40.80499 | -73.72134 | 22180 ft | 238 kts | 197° |
| 2026-04-28 17:49 | 40.78890 | -73.72604 | 22180 ft | 238 kts | 197° |
| 2026-04-28 17:49 | 40.77271 | -73.73076 | 22182 ft | 238 kts | 196° |
| 2026-04-28 17:50 | 40.75647 | -73.73549 | 22176 ft | 238 kts | 197° |
| 2026-04-28 17:50 | 40.74038 | -73.74017 | 22180 ft | 237 kts | 196° |
| 2026-04-28 17:50 | 40.72418 | -73.74487 | 22183 ft | 237 kts | 197° |
| 2026-04-28 17:50 | 40.70812 | -73.74954 | 22184 ft | 237 kts | 197° |
| 2026-04-28 17:51 | 40.69207 | -73.75421 | 22183 ft | 237 kts | 197° |
| 2026-04-28 17:51 | 40.67586 | -73.75892 | 22182 ft | 237 kts | 197° |
| 2026-04-28 17:51 | 40.65967 | -73.76362 | 22183 ft | 237 kts | 197° |
| 2026-04-28 17:51 | 40.64373 | -73.76835 | 22185 ft | 236 kts | 199° |
| 2026-04-28 17:52 | 40.63006 | -73.77897 | 22179 ft | 227 kts | 230° |
| 2026-04-28 17:52 | 40.62207 | -73.79655 | 22180 ft | 224 kts | 248° |
| 2026-04-28 17:52 | 40.61385 | -73.83590 | 22187 ft | 223 kts | 257° |
| 2026-04-28 17:53 | 40.61053 | -73.85581 | 22186 ft | 223 kts | 256° |
| 2026-04-28 17:53 | 40.60685 | -73.87585 | 22184 ft | 223 kts | 255° |
| 2026-04-28 17:53 | 40.60292 | -73.89545 | 22183 ft | 223 kts | 254° |
| 2026-04-28 17:53 | 40.59879 | -73.91504 | 22183 ft | 224 kts | 253° |
| 2026-04-28 17:54 | 40.59444 | -73.93494 | 22178 ft | 224 kts | 253° |
| 2026-04-28 17:54 | 40.59005 | -73.95458 | 22178 ft | 224 kts | 253° |
| 2026-04-28 17:54 | 40.58560 | -73.97419 | 22176 ft | 224 kts | 253° |
| 2026-04-28 17:54 | 40.58112 | -73.99370 | 22177 ft | 224 kts | 252° |
| 2026-04-28 17:55 | 40.57659 | -74.01335 | 22184 ft | 224 kts | 252° |
| 2026-04-28 17:55 | 40.57203 | -74.03299 | 22177 ft | 225 kts | 252° |
| 2026-04-28 17:55 | 40.56749 | -74.05252 | 22179 ft | 225 kts | 252° |
| 2026-04-28 17:55 | 40.56290 | -74.07216 | 22177 ft | 225 kts | 252° |
| 2026-04-28 17:56 | 40.55827 | -74.09198 | 22177 ft | 225 kts | 252° |
| 2026-04-28 17:56 | 40.55361 | -74.11162 | 22176 ft | 225 kts | 250° |
| 2026-04-28 17:56 | 40.54487 | -74.12833 | 22193 ft | 226 kts | 225° |
| 2026-04-28 17:56 | 40.53303 | -74.14194 | 22174 ft | 228 kts | 223° |
| 2026-04-28 17:57 | 40.52078 | -74.15511 | 22174 ft | 228 kts | 221° |
| 2026-04-28 17:57 | 40.50847 | -74.16798 | 22177 ft | 228 kts | 222° |
| 2026-04-28 17:57 | 40.49604 | -74.18105 | 22173 ft | 228 kts | 222° |
| 2026-04-28 17:57 | 40.48373 | -74.19409 | 22169 ft | 228 kts | 222° |
| 2026-04-28 17:58 | 40.47149 | -74.20714 | 22170 ft | 228 kts | 222° |
| 2026-04-28 17:58 | 40.45924 | -74.22022 | 22173 ft | 227 kts | 222° |
| 2026-04-28 17:58 | 40.44690 | -74.23344 | 22178 ft | 228 kts | 222° |
| 2026-04-28 17:58 | 40.43456 | -74.24667 | 22173 ft | 228 kts | 222° |
| 2026-04-28 17:59 | 40.42229 | -74.25983 | 22166 ft | 228 kts | 222° |
| 2026-04-28 17:59 | 40.40999 | -74.27303 | 22165 ft | 228 kts | 223° |
| 2026-04-28 17:59 | 40.39767 | -74.28625 | 22161 ft | 228 kts | 223° |
| 2026-04-28 17:59 | 40.38548 | -74.29932 | 22159 ft | 228 kts | 223° |
| 2026-04-28 18:00 | 40.37318 | -74.31252 | 22165 ft | 228 kts | 223° |
| 2026-04-28 18:00 | 40.36088 | -74.32570 | 22167 ft | 228 kts | 223° |
| 2026-04-28 18:00 | 40.34864 | -74.33881 | 22165 ft | 228 kts | 223° |
| 2026-04-28 18:00 | 40.33640 | -74.35192 | 22169 ft | 229 kts | 223° |
| 2026-04-28 18:01 | 40.32406 | -74.36513 | 22170 ft | 229 kts | 223° |
| 2026-04-28 18:01 | 40.31171 | -74.37834 | 22169 ft | 229 kts | 223° |
| 2026-04-28 18:01 | 40.29936 | -74.39155 | 22167 ft | 228 kts | 223° |
| 2026-04-28 18:01 | 40.28696 | -74.40481 | 22165 ft | 228 kts | 223° |
| 2026-04-28 18:02 | 40.27472 | -74.41789 | 22173 ft | 228 kts | 223° |
| 2026-04-28 18:02 | 40.26244 | -74.43101 | 22169 ft | 228 kts | 223° |
| 2026-04-28 18:02 | 40.25014 | -74.44414 | 22168 ft | 229 kts | 223° |
| 2026-04-28 18:02 | 40.23779 | -74.45732 | 22165 ft | 229 kts | 224° |
| 2026-04-28 18:03 | 40.22543 | -74.47049 | 22165 ft | 229 kts | 224° |
| 2026-04-28 18:03 | 40.21311 | -74.48361 | 22169 ft | 228 kts | 224° |
| 2026-04-28 18:03 | 40.20129 | -74.49702 | 22164 ft | 226 kts | 231° |
| 2026-04-28 18:03 | 40.19074 | -74.51221 | 22172 ft | 225 kts | 231° |
| 2026-04-28 18:04 | 40.18020 | -74.52733 | 22174 ft | 225 kts | 232° |
| 2026-04-28 18:04 | 40.16958 | -74.54260 | 22171 ft | 226 kts | 232° |
| 2026-04-28 18:04 | 40.15905 | -74.55772 | 22173 ft | 225 kts | 231° |
| 2026-04-28 18:04 | 40.14846 | -74.57297 | 22169 ft | 225 kts | 232° |
| 2026-04-28 18:05 | 40.13796 | -74.58810 | 22173 ft | 225 kts | 232° |
| 2026-04-28 18:05 | 40.13097 | -74.59816 | 22177 ft | 225 kts | 232° |
| 2026-04-28 18:05 | 40.11707 | -74.61816 | 22179 ft | 225 kts | 232° |
| 2026-04-28 18:05 | 40.10646 | -74.63343 | 22180 ft | 225 kts | 232° |
| 2026-04-28 18:06 | 40.09590 | -74.64862 | 22178 ft | 226 kts | 232° |
| 2026-04-28 18:06 | 40.08533 | -74.66383 | 22180 ft | 226 kts | 232° |
| 2026-04-28 18:06 | 40.07858 | -74.67352 | 22183 ft | 227 kts | 232° |
| 2026-04-28 18:06 | 40.06801 | -74.68870 | 22186 ft | 227 kts | 232° |
| 2026-04-28 18:07 | 40.05724 | -74.70418 | 22186 ft | 228 kts | 232° |
| 2026-04-28 18:07 | 40.04654 | -74.71954 | 22183 ft | 229 kts | 232° |
| 2026-04-28 18:07 | 40.03566 | -74.73461 | 22188 ft | 232 kts | 226° |
| 2026-04-28 18:07 | 40.02226 | -74.74699 | 22185 ft | 235 kts | 220° |
| 2026-04-28 18:08 | 40.00903 | -74.75935 | 22179 ft | 236 kts | 220° |
| 2026-04-28 18:08 | 39.99574 | -74.77181 | 22173 ft | 236 kts | 221° |
| 2026-04-28 18:08 | 39.98222 | -74.78440 | 22170 ft | 237 kts | 221° |
| 2026-04-28 18:08 | 39.96878 | -74.79688 | 22169 ft | 238 kts | 221° |
| 2026-04-28 18:09 | 39.95533 | -74.80932 | 22168 ft | 238 kts | 221° |
| 2026-04-28 18:09 | 39.94163 | -74.82195 | 22168 ft | 238 kts | 221° |
| 2026-04-28 18:09 | 39.92813 | -74.83440 | 22168 ft | 239 kts | 220° |
| 2026-04-28 18:09 | 39.91457 | -74.84689 | 22168 ft | 239 kts | 220° |
| 2026-04-28 18:10 | 39.90113 | -74.85934 | 22162 ft | 239 kts | 223° |
| 2026-04-28 18:10 | 39.88858 | -74.87320 | 22161 ft | 238 kts | 226° |
| 2026-04-28 18:10 | 39.87595 | -74.88744 | 22163 ft | 237 kts | 226° |
| 2026-04-28 18:10 | 39.86353 | -74.90148 | 22163 ft | 237 kts | 227° |
| 2026-04-28 18:11 | 39.85102 | -74.91564 | 22160 ft | 237 kts | 226° |
| 2026-04-28 18:11 | 39.83862 | -74.92966 | 22160 ft | 237 kts | 226° |
| 2026-04-28 18:11 | 39.82613 | -74.94378 | 22161 ft | 237 kts | 226° |
| 2026-04-28 18:11 | 39.81371 | -74.95782 | 22164 ft | 237 kts | 226° |
| 2026-04-28 18:12 | 39.80128 | -74.97186 | 22159 ft | 238 kts | 226° |
| 2026-04-28 18:12 | 39.78877 | -74.98598 | 22160 ft | 238 kts | 227° |
| 2026-04-28 18:12 | 39.77639 | -74.99995 | 22156 ft | 238 kts | 226° |
| 2026-04-28 18:12 | 39.76382 | -75.01409 | 22162 ft | 238 kts | 226° |
| 2026-04-28 18:13 | 39.75129 | -75.02820 | 22164 ft | 238 kts | 227° |
| 2026-04-28 18:13 | 39.73869 | -75.04237 | 22160 ft | 239 kts | 226° |
| 2026-04-28 18:13 | 39.72625 | -75.05635 | 22158 ft | 239 kts | 227° |
| 2026-04-28 18:13 | 39.71360 | -75.07055 | 22158 ft | 239 kts | 226° |
| 2026-04-28 18:14 | 39.70090 | -75.08481 | 22155 ft | 239 kts | 226° |
| 2026-04-28 18:14 | 39.68838 | -75.09887 | 22152 ft | 239 kts | 227° |
| 2026-04-28 18:14 | 39.67587 | -75.11289 | 22158 ft | 239 kts | 227° |
| 2026-04-28 18:14 | 39.66356 | -75.12719 | 22144 ft | 238 kts | 228° |
| 2026-04-28 18:15 | 39.65147 | -75.14204 | 22144 ft | 237 kts | 229° |
| 2026-04-28 18:15 | 39.63970 | -75.15662 | 22149 ft | 237 kts | 230° |
| 2026-04-28 18:15 | 39.62777 | -75.17136 | 22153 ft | 237 kts | 230° |
| 2026-04-28 18:15 | 39.61573 | -75.18616 | 22156 ft | 237 kts | 229° |
| 2026-04-28 18:16 | 39.60374 | -75.20084 | 22154 ft | 237 kts | 229° |
| 2026-04-28 18:16 | 39.59177 | -75.21549 | 22148 ft | 237 kts | 229° |
| 2026-04-28 18:16 | 39.57976 | -75.23016 | 22159 ft | 237 kts | 229° |
| 2026-04-28 18:16 | 39.56789 | -75.24463 | 22154 ft | 237 kts | 229° |
| 2026-04-28 18:17 | 39.55588 | -75.25925 | 22148 ft | 237 kts | 229° |
| 2026-04-28 18:17 | 39.54386 | -75.27388 | 22149 ft | 237 kts | 229° |
| 2026-04-28 18:17 | 39.53183 | -75.28851 | 22159 ft | 236 kts | 229° |
| 2026-04-28 18:17 | 39.51978 | -75.30315 | 22153 ft | 237 kts | 229° |
| 2026-04-28 18:18 | 39.50780 | -75.31770 | 22151 ft | 237 kts | 229° |
| 2026-04-28 18:18 | 39.49589 | -75.33216 | 22152 ft | 237 kts | 229° |
| 2026-04-28 18:18 | 39.48386 | -75.34676 | 22151 ft | 237 kts | 229° |
| 2026-04-28 18:18 | 39.47588 | -75.35644 | 22147 ft | 237 kts | 229° |
| 2026-04-28 18:19 | 39.45978 | -75.37595 | 22144 ft | 237 kts | 229° |
| 2026-04-28 18:19 | 39.44776 | -75.39050 | 22146 ft | 236 kts | 230° |
| 2026-04-28 18:19 | 39.43572 | -75.40507 | 22145 ft | 236 kts | 230° |
| 2026-04-28 18:19 | 39.42376 | -75.41956 | 22149 ft | 236 kts | 229° |
| 2026-04-28 18:20 | 39.41173 | -75.43410 | 22148 ft | 236 kts | 230° |
| 2026-04-28 18:20 | 39.39973 | -75.44859 | 22150 ft | 236 kts | 230° |
| 2026-04-28 18:20 | 39.38775 | -75.46310 | 22152 ft | 236 kts | 230° |
| 2026-04-28 18:20 | 39.37586 | -75.47744 | 22149 ft | 236 kts | 230° |
| 2026-04-28 18:21 | 39.36396 | -75.49181 | 22149 ft | 236 kts | 229° |
| 2026-04-28 18:21 | 39.35191 | -75.50635 | 22143 ft | 236 kts | 230° |
| 2026-04-28 18:21 | 39.33989 | -75.52085 | 22142 ft | 236 kts | 230° |
| 2026-04-28 18:21 | 39.32799 | -75.53519 | 22145 ft | 236 kts | 229° |
| 2026-04-28 18:22 | 39.31592 | -75.54974 | 22142 ft | 236 kts | 229° |
| 2026-04-28 18:22 | 39.30391 | -75.56419 | 22143 ft | 236 kts | 230° |
| 2026-04-28 18:22 | 39.29180 | -75.57877 | 22140 ft | 237 kts | 230° |
| 2026-04-28 18:22 | 39.27978 | -75.59324 | 22138 ft | 237 kts | 229° |
| 2026-04-28 18:23 | 39.26772 | -75.60773 | 22139 ft | 237 kts | 230° |
| 2026-04-28 18:23 | 39.25565 | -75.62224 | 22134 ft | 237 kts | 230° |
| 2026-04-28 18:23 | 39.24372 | -75.63656 | 22139 ft | 236 kts | 229° |
| 2026-04-28 18:23 | 39.23175 | -75.65093 | 22137 ft | 236 kts | 229° |
| 2026-04-28 18:24 | 39.21973 | -75.66536 | 22146 ft | 236 kts | 229° |
| 2026-04-28 18:24 | 39.21154 | -75.67518 | 22146 ft | 236 kts | 229° |
| 2026-04-28 18:24 | 39.20186 | -75.68680 | 22143 ft | 237 kts | 229° |
| 2026-04-28 18:24 | 39.18981 | -75.70124 | 22143 ft | 237 kts | 229° |
| 2026-04-28 18:25 | 39.17771 | -75.71573 | 22143 ft | 237 kts | 229° |
| 2026-04-28 18:25 | 39.16568 | -75.73014 | 22140 ft | 237 kts | 229° |
| 2026-04-28 18:25 | 39.15353 | -75.74468 | 22138 ft | 237 kts | 229° |
| 2026-04-28 18:26 | 39.12938 | -75.77355 | 22139 ft | 237 kts | 229° |
| 2026-04-28 18:26 | 39.11730 | -75.78799 | 22141 ft | 237 kts | 229° |
| 2026-04-28 18:26 | 39.10532 | -75.80231 | 22136 ft | 237 kts | 229° |
| 2026-04-28 18:26 | 39.09318 | -75.81680 | 22138 ft | 237 kts | 229° |
| 2026-04-28 18:27 | 39.08102 | -75.83131 | 22141 ft | 237 kts | 229° |
| 2026-04-28 18:27 | 39.06889 | -75.84576 | 22140 ft | 237 kts | 229° |
| 2026-04-28 18:27 | 39.05689 | -75.86007 | 22144 ft | 237 kts | 229° |
| 2026-04-28 18:27 | 39.04478 | -75.87450 | 22143 ft | 237 kts | 229° |
| 2026-04-28 18:28 | 39.03263 | -75.88896 | 22148 ft | 237 kts | 229° |
| 2026-04-28 18:28 | 39.02047 | -75.90344 | 22149 ft | 237 kts | 229° |
| 2026-04-28 18:28 | 39.00850 | -75.91769 | 22153 ft | 237 kts | 229° |
| 2026-04-28 18:28 | 38.99639 | -75.93208 | 22160 ft | 236 kts | 229° |
| 2026-04-28 18:29 | 38.98432 | -75.94643 | 22160 ft | 236 kts | 229° |
| 2026-04-28 18:29 | 38.97226 | -75.96077 | 22162 ft | 236 kts | 229° |
| 2026-04-28 18:29 | 38.96021 | -75.97507 | 22161 ft | 236 kts | 229° |
| 2026-04-28 18:29 | 38.94797 | -75.98917 | 22160 ft | 237 kts | 227° |
| 2026-04-28 18:30 | 38.93538 | -76.00287 | 22161 ft | 238 kts | 226° |
| 2026-04-28 18:30 | 38.92693 | -76.01196 | 22163 ft | 238 kts | 227° |
| 2026-04-28 18:30 | 38.91009 | -76.03012 | 22165 ft | 238 kts | 226° |
| 2026-04-28 18:30 | 38.89743 | -76.04382 | 22163 ft | 238 kts | 227° |
| 2026-04-28 18:31 | 38.88521 | -76.05709 | 22159 ft | 238 kts | 227° |
| 2026-04-28 18:31 | 38.87219 | -76.07124 | 22160 ft | 237 kts | 226° |
| 2026-04-28 18:31 | 38.85953 | -76.08500 | 22157 ft | 237 kts | 226° |
| 2026-04-28 18:31 | 38.84699 | -76.09863 | 22160 ft | 237 kts | 226° |
| 2026-04-28 18:32 | 38.83434 | -76.11239 | 22162 ft | 237 kts | 226° |
| 2026-04-28 18:32 | 38.82174 | -76.12608 | 22161 ft | 237 kts | 226° |
| 2026-04-28 18:32 | 38.80907 | -76.13985 | 22157 ft | 238 kts | 227° |
| 2026-04-28 18:32 | 38.79662 | -76.15338 | 22159 ft | 238 kts | 226° |
| 2026-04-28 18:33 | 38.78392 | -76.16718 | 22155 ft | 238 kts | 227° |
| 2026-04-28 18:33 | 38.77130 | -76.18087 | 22161 ft | 238 kts | 226° |
| 2026-04-28 18:33 | 38.75865 | -76.19460 | 22157 ft | 238 kts | 226° |
| 2026-04-28 18:33 | 38.74611 | -76.20820 | 22156 ft | 238 kts | 227° |
| 2026-04-28 18:34 | 38.73340 | -76.22198 | 22151 ft | 238 kts | 227° |
| 2026-04-28 18:34 | 38.72083 | -76.23559 | 22158 ft | 238 kts | 226° |
| 2026-04-28 18:34 | 38.70809 | -76.24940 | 22150 ft | 238 kts | 226° |
| 2026-04-28 18:34 | 38.69550 | -76.26302 | 22151 ft | 237 kts | 226° |
| 2026-04-28 18:35 | 38.68301 | -76.27653 | 22148 ft | 237 kts | 227° |
| 2026-04-28 18:35 | 38.67039 | -76.29018 | 22147 ft | 237 kts | 227° |
| 2026-04-28 18:35 | 38.65788 | -76.30370 | 22146 ft | 237 kts | 226° |
| 2026-04-28 18:35 | 38.64526 | -76.31735 | 22145 ft | 237 kts | 227° |
| 2026-04-28 18:36 | 38.63263 | -76.33099 | 22145 ft | 237 kts | 226° |
| 2026-04-28 18:36 | 38.62005 | -76.34457 | 22144 ft | 237 kts | 227° |
| 2026-04-28 18:36 | 38.60746 | -76.35815 | 22146 ft | 237 kts | 226° |
| 2026-04-28 18:36 | 38.59476 | -76.37184 | 22142 ft | 237 kts | 227° |
| 2026-04-28 18:37 | 38.58217 | -76.38541 | 22140 ft | 237 kts | 227° |
| 2026-04-28 18:37 | 38.56950 | -76.39906 | 22145 ft | 237 kts | 227° |
| 2026-04-28 18:37 | 38.55698 | -76.41255 | 22141 ft | 238 kts | 227° |
| 2026-04-28 18:37 | 38.54430 | -76.42619 | 22138 ft | 238 kts | 227° |
| 2026-04-28 18:38 | 38.53161 | -76.43984 | 22138 ft | 237 kts | 226° |
| 2026-04-28 18:38 | 38.51906 | -76.45334 | 22139 ft | 237 kts | 227° |
| 2026-04-28 18:38 | 38.50644 | -76.46690 | 22137 ft | 237 kts | 227° |
| 2026-04-28 18:38 | 38.49383 | -76.48045 | 22143 ft | 236 kts | 226° |
| 2026-04-28 18:39 | 38.48113 | -76.49409 | 22146 ft | 237 kts | 226° |
| 2026-04-28 18:39 | 38.46854 | -76.50760 | 22132 ft | 237 kts | 227° |
| 2026-04-28 18:39 | 38.45588 | -76.52118 | 22127 ft | 237 kts | 226° |
| 2026-04-28 18:39 | 38.44330 | -76.53466 | 22133 ft | 237 kts | 226° |
| 2026-04-28 18:40 | 38.43079 | -76.54808 | 22139 ft | 237 kts | 226° |
| 2026-04-28 18:40 | 38.41816 | -76.56161 | 22139 ft | 237 kts | 227° |
| 2026-04-28 18:40 | 38.40564 | -76.57516 | 22135 ft | 237 kts | 227° |
| 2026-04-28 18:40 | 38.39303 | -76.58884 | 22139 ft | 237 kts | 227° |
| 2026-04-28 18:41 | 38.38036 | -76.60259 | 22133 ft | 237 kts | 227° |
| 2026-04-28 18:41 | 38.36795 | -76.61603 | 22134 ft | 237 kts | 227° |
| 2026-04-28 18:41 | 38.35532 | -76.62971 | 22132 ft | 237 kts | 226° |
| 2026-04-28 18:41 | 38.34278 | -76.64328 | 22129 ft | 237 kts | 226° |
| 2026-04-28 18:42 | 38.33029 | -76.65679 | 22141 ft | 237 kts | 226° |
| 2026-04-28 18:42 | 38.31748 | -76.67063 | 22136 ft | 238 kts | 226° |
| 2026-04-28 18:42 | 38.30488 | -76.68424 | 22133 ft | 238 kts | 226° |
| 2026-04-28 18:42 | 38.29213 | -76.69801 | 22137 ft | 238 kts | 227° |
| 2026-04-28 18:43 | 38.27961 | -76.71151 | 22133 ft | 239 kts | 226° |
| 2026-04-28 18:43 | 38.26690 | -76.72523 | 22128 ft | 239 kts | 226° |
| 2026-04-28 18:43 | 38.25419 | -76.73893 | 22129 ft | 239 kts | 226° |
| 2026-04-28 18:43 | 38.24081 | -76.75175 | 22131 ft | 244 kts | 216° |
| 2026-04-28 18:44 | 38.22608 | -76.76238 | 22128 ft | 244 kts | 215° |
| 2026-04-28 18:44 | 38.19632 | -76.78296 | 22125 ft | 244 kts | 214° |
| 2026-04-28 18:44 | 38.18142 | -76.79328 | 22130 ft | 244 kts | 214° |
| 2026-04-28 18:45 | 38.16649 | -76.80365 | 22127 ft | 244 kts | 215° |
| 2026-04-28 18:45 | 38.15154 | -76.81406 | 22124 ft | 244 kts | 215° |
| 2026-04-28 18:45 | 38.13673 | -76.82439 | 22120 ft | 244 kts | 215° |
| 2026-04-28 18:45 | 38.12173 | -76.83485 | 22116 ft | 244 kts | 215° |
| 2026-04-28 18:46 | 38.10692 | -76.84519 | 22120 ft | 244 kts | 215° |
| 2026-04-28 18:46 | 38.09198 | -76.85561 | 22119 ft | 244 kts | 215° |
| 2026-04-28 18:46 | 38.07701 | -76.86606 | 22123 ft | 244 kts | 215° |
| 2026-04-28 18:46 | 38.06217 | -76.87641 | 22128 ft | 244 kts | 215° |
| 2026-04-28 18:47 | 38.04741 | -76.88670 | 22123 ft | 244 kts | 215° |
| 2026-04-28 18:47 | 38.03256 | -76.89705 | 22123 ft | 244 kts | 215° |
| 2026-04-28 18:47 | 38.01764 | -76.90745 | 22124 ft | 244 kts | 215° |
| 2026-04-28 18:47 | 38.00274 | -76.91782 | 22125 ft | 244 kts | 215° |
| 2026-04-28 18:48 | 37.98784 | -76.92820 | 22119 ft | 244 kts | 215° |
| 2026-04-28 18:48 | 37.97294 | -76.93857 | 22121 ft | 243 kts | 215° |
| 2026-04-28 18:48 | 37.95808 | -76.94891 | 22130 ft | 243 kts | 215° |
| 2026-04-28 18:48 | 37.94325 | -76.95921 | 22127 ft | 243 kts | 215° |
| 2026-04-28 18:49 | 37.92848 | -76.96948 | 22127 ft | 243 kts | 215° |
| 2026-04-28 18:49 | 37.91855 | -76.97638 | 22133 ft | 243 kts | 215° |
| 2026-04-28 18:49 | 37.89972 | -76.98944 | 22128 ft | 243 kts | 215° |
| 2026-04-28 18:49 | 37.88440 | -77.00008 | 22120 ft | 243 kts | 215° |
| 2026-04-28 18:50 | 37.86945 | -77.01045 | 22131 ft | 243 kts | 215° |
| 2026-04-28 18:50 | 37.85457 | -77.02076 | 22132 ft | 243 kts | 215° |
| 2026-04-28 18:50 | 37.83968 | -77.03108 | 22122 ft | 243 kts | 215° |
| 2026-04-28 18:50 | 37.82491 | -77.04131 | 22128 ft | 243 kts | 215° |
| 2026-04-28 18:51 | 37.81014 | -77.05154 | 22123 ft | 243 kts | 215° |
| 2026-04-28 18:51 | 37.79529 | -77.06182 | 22125 ft | 242 kts | 215° |
| 2026-04-28 18:51 | 37.78038 | -77.07213 | 22128 ft | 242 kts | 216° |
| 2026-04-28 18:51 | 37.76570 | -77.08227 | 22120 ft | 243 kts | 215° |
| 2026-04-28 18:52 | 37.75083 | -77.09255 | 22122 ft | 242 kts | 215° |
| 2026-04-28 18:52 | 37.73591 | -77.10285 | 22123 ft | 243 kts | 215° |
| 2026-04-28 18:52 | 37.72125 | -77.11297 | 22129 ft | 243 kts | 215° |
| 2026-04-28 18:52 | 37.70622 | -77.12335 | 22115 ft | 243 kts | 215° |
| 2026-04-28 18:53 | 37.69226 | -77.13491 | 22099 ft | 234 kts | 232° |
| 2026-04-28 18:53 | 37.68338 | -77.15134 | 22116 ft | 228 kts | 244° |
| 2026-04-28 18:53 | 37.67556 | -77.16887 | 22123 ft | 227 kts | 246° |
| 2026-04-28 18:53 | 37.66834 | -77.18638 | 22121 ft | 226 kts | 248° |
| 2026-04-28 18:54 | 37.66110 | -77.20412 | 22123 ft | 226 kts | 247° |
| 2026-04-28 18:54 | 37.65380 | -77.22169 | 22124 ft | 226 kts | 247° |
| 2026-04-28 18:54 | 37.64642 | -77.23924 | 22125 ft | 227 kts | 247° |
| 2026-04-28 18:54 | 37.63892 | -77.25689 | 22123 ft | 227 kts | 247° |
| 2026-04-28 18:55 | 37.63147 | -77.27432 | 22124 ft | 226 kts | 246° |
| 2026-04-28 18:55 | 37.62647 | -77.28599 | 22125 ft | 226 kts | 246° |
| 2026-04-28 18:55 | 37.61648 | -77.30921 | 22128 ft | 226 kts | 246° |
| 2026-04-28 18:55 | 37.60893 | -77.32671 | 22126 ft | 226 kts | 246° |
| 2026-04-28 18:56 | 37.60143 | -77.34405 | 22125 ft | 226 kts | 246° |
| 2026-04-28 18:56 | 37.59394 | -77.36137 | 22127 ft | 226 kts | 246° |
| 2026-04-28 18:56 | 37.58643 | -77.37872 | 22126 ft | 226 kts | 246° |
| 2026-04-28 18:56 | 37.57887 | -77.39615 | 22124 ft | 226 kts | 246° |
| 2026-04-28 18:57 | 37.57139 | -77.41341 | 22127 ft | 226 kts | 246° |
| 2026-04-28 18:57 | 37.56375 | -77.43100 | 22127 ft | 225 kts | 246° |
| 2026-04-28 18:57 | 37.55632 | -77.44810 | 22123 ft | 225 kts | 246° |
| 2026-04-28 18:57 | 37.54875 | -77.46553 | 22124 ft | 225 kts | 246° |
| 2026-04-28 18:58 | 37.54124 | -77.48281 | 22126 ft | 225 kts | 246° |
| 2026-04-28 18:58 | 37.53369 | -77.50014 | 22123 ft | 225 kts | 247° |
| 2026-04-28 18:58 | 37.52624 | -77.51727 | 22123 ft | 225 kts | 246° |
| 2026-04-28 18:58 | 37.51870 | -77.53459 | 22123 ft | 225 kts | 246° |
| 2026-04-28 18:59 | 37.51119 | -77.55180 | 22122 ft | 225 kts | 247° |
| 2026-04-28 18:59 | 37.50365 | -77.56909 | 22123 ft | 225 kts | 246° |
| 2026-04-28 18:59 | 37.49607 | -77.58646 | 22122 ft | 225 kts | 246° |
| 2026-04-28 18:59 | 37.48860 | -77.60358 | 22117 ft | 225 kts | 246° |
| 2026-04-28 19:00 | 37.48102 | -77.62093 | 22119 ft | 225 kts | 247° |
| 2026-04-28 19:00 | 37.47355 | -77.63802 | 22115 ft | 225 kts | 246° |
| 2026-04-28 19:00 | 37.46601 | -77.65527 | 22119 ft | 224 kts | 246° |
| 2026-04-28 19:00 | 37.45842 | -77.67262 | 22119 ft | 225 kts | 246° |
| 2026-04-28 19:01 | 37.45084 | -77.68995 | 22118 ft | 225 kts | 246° |
| 2026-04-28 19:01 | 37.44335 | -77.70705 | 22117 ft | 225 kts | 246° |
| 2026-04-28 19:01 | 37.43576 | -77.72436 | 22120 ft | 225 kts | 246° |
| 2026-04-28 19:01 | 37.42821 | -77.74160 | 22113 ft | 225 kts | 246° |
| 2026-04-28 19:02 | 37.42060 | -77.75894 | 22109 ft | 225 kts | 246° |
| 2026-04-28 19:02 | 37.41312 | -77.77599 | 22109 ft | 225 kts | 246° |
| 2026-04-28 19:02 | 37.40551 | -77.79333 | 22109 ft | 225 kts | 246° |
| 2026-04-28 19:02 | 37.39788 | -77.81067 | 22104 ft | 225 kts | 246° |
| 2026-04-28 19:03 | 37.39037 | -77.82777 | 22102 ft | 226 kts | 246° |
| 2026-04-28 19:03 | 37.38282 | -77.84493 | 22100 ft | 225 kts | 246° |
| 2026-04-28 19:03 | 37.37523 | -77.86220 | 22100 ft | 225 kts | 246° |
| 2026-04-28 19:03 | 37.36760 | -77.87950 | 22096 ft | 225 kts | 246° |
| 2026-04-28 19:04 | 37.36006 | -77.89662 | 22096 ft | 225 kts | 246° |
| 2026-04-28 19:04 | 37.35250 | -77.91379 | 22097 ft | 225 kts | 246° |
| 2026-04-28 19:04 | 37.34489 | -77.93103 | 22096 ft | 225 kts | 246° |
| 2026-04-28 19:04 | 37.33737 | -77.94808 | 22097 ft | 225 kts | 246° |
| 2026-04-28 19:05 | 37.32975 | -77.96533 | 22095 ft | 225 kts | 246° |
| 2026-04-28 19:05 | 37.32216 | -77.98251 | 22095 ft | 225 kts | 246° |
| 2026-04-28 19:05 | 37.31453 | -77.99979 | 22092 ft | 224 kts | 246° |
| 2026-04-28 19:05 | 37.30702 | -78.01677 | 22090 ft | 224 kts | 247° |
| 2026-04-28 19:06 | 37.29940 | -78.03397 | 22096 ft | 224 kts | 246° |
| 2026-04-28 19:06 | 37.29445 | -78.04519 | 22099 ft | 224 kts | 246° |
| 2026-04-28 19:06 | 37.28433 | -78.06803 | 22095 ft | 224 kts | 246° |
| 2026-04-28 19:06 | 37.27682 | -78.08497 | 22096 ft | 223 kts | 246° |
| 2026-04-28 19:07 | 37.26922 | -78.10212 | 22099 ft | 223 kts | 246° |
| 2026-04-28 19:07 | 37.26174 | -78.11899 | 22097 ft | 223 kts | 247° |
| 2026-04-28 19:07 | 37.25424 | -78.13589 | 22098 ft | 223 kts | 247° |
| 2026-04-28 19:07 | 37.24668 | -78.15291 | 22097 ft | 223 kts | 247° |
| 2026-04-28 19:08 | 37.23911 | -78.16997 | 22095 ft | 223 kts | 246° |
| 2026-04-28 19:08 | 37.23153 | -78.18700 | 22094 ft | 223 kts | 247° |
| 2026-04-28 19:08 | 37.22398 | -78.20398 | 22094 ft | 223 kts | 246° |
| 2026-04-28 19:08 | 37.21653 | -78.22073 | 22092 ft | 223 kts | 246° |
| 2026-04-28 19:09 | 37.20895 | -78.23775 | 22094 ft | 223 kts | 247° |
| 2026-04-28 19:09 | 37.20137 | -78.25459 | 22098 ft | 223 kts | 244° |
| 2026-04-28 19:09 | 37.19250 | -78.27090 | 22095 ft | 224 kts | 242° |
| 2026-04-28 19:09 | 37.18361 | -78.28696 | 22095 ft | 224 kts | 241° |
| 2026-04-28 19:10 | 37.17478 | -78.30283 | 22094 ft | 224 kts | 242° |
| 2026-04-28 19:10 | 37.16580 | -78.31895 | 22092 ft | 224 kts | 242° |
| 2026-04-28 19:10 | 37.15681 | -78.33508 | 22093 ft | 224 kts | 242° |
| 2026-04-28 19:10 | 37.14788 | -78.35107 | 22092 ft | 224 kts | 242° |
| 2026-04-28 19:11 | 37.13897 | -78.36704 | 22091 ft | 224 kts | 242° |
| 2026-04-28 19:11 | 37.13007 | -78.38296 | 22091 ft | 224 kts | 242° |
| 2026-04-28 19:11 | 37.12114 | -78.39893 | 22090 ft | 224 kts | 242° |
| 2026-04-28 19:11 | 37.11219 | -78.41494 | 22087 ft | 224 kts | 242° |
| 2026-04-28 19:12 | 37.10321 | -78.43099 | 22085 ft | 224 kts | 242° |
| 2026-04-28 19:12 | 37.09430 | -78.44691 | 22084 ft | 224 kts | 242° |
| 2026-04-28 19:12 | 37.08542 | -78.46276 | 22084 ft | 223 kts | 242° |
| 2026-04-28 19:12 | 37.07649 | -78.47870 | 22088 ft | 223 kts | 242° |
| 2026-04-28 19:13 | 37.06758 | -78.49459 | 22085 ft | 223 kts | 242° |
| 2026-04-28 19:13 | 37.05870 | -78.51043 | 22084 ft | 223 kts | 242° |
| 2026-04-28 19:13 | 37.04987 | -78.52617 | 22085 ft | 222 kts | 242° |
| 2026-04-28 19:13 | 37.04089 | -78.54217 | 22085 ft | 223 kts | 242° |
| 2026-04-28 19:14 | 37.03204 | -78.55792 | 22083 ft | 222 kts | 242° |
| 2026-04-28 19:14 | 37.02320 | -78.57365 | 22081 ft | 222 kts | 242° |
| 2026-04-28 19:14 | 37.01423 | -78.58961 | 22085 ft | 222 kts | 242° |
| 2026-04-28 19:14 | 37.00537 | -78.60537 | 22082 ft | 222 kts | 242° |
| 2026-04-28 19:15 | 36.99657 | -78.62099 | 22087 ft | 221 kts | 242° |
| 2026-04-28 19:15 | 36.98771 | -78.63672 | 22084 ft | 221 kts | 242° |
| 2026-04-28 19:15 | 36.97876 | -78.65263 | 22081 ft | 222 kts | 242° |
| 2026-04-28 19:15 | 36.97279 | -78.66322 | 22089 ft | 222 kts | 242° |
| 2026-04-28 19:16 | 36.96096 | -78.68420 | 22091 ft | 222 kts | 242° |
| 2026-04-28 19:16 | 36.95200 | -78.70009 | 22091 ft | 222 kts | 242° |
| 2026-04-28 19:16 | 36.94307 | -78.71591 | 22092 ft | 222 kts | 242° |
| 2026-04-28 19:16 | 36.93412 | -78.73176 | 22092 ft | 222 kts | 242° |
| 2026-04-28 19:17 | 36.92514 | -78.74768 | 22095 ft | 223 kts | 242° |
| 2026-04-28 19:17 | 36.91628 | -78.76335 | 22091 ft | 223 kts | 242° |
| 2026-04-28 19:17 | 36.90732 | -78.77920 | 22091 ft | 223 kts | 242° |
| 2026-04-28 19:17 | 36.89844 | -78.79490 | 22091 ft | 223 kts | 242° |
| 2026-04-28 19:18 | 36.88940 | -78.81087 | 22086 ft | 223 kts | 242° |
| 2026-04-28 19:18 | 36.88041 | -78.82675 | 22085 ft | 223 kts | 242° |
| 2026-04-28 19:18 | 36.87138 | -78.84270 | 22086 ft | 223 kts | 242° |
| 2026-04-28 19:18 | 36.86229 | -78.85873 | 22085 ft | 222 kts | 243° |
| 2026-04-28 19:19 | 36.85337 | -78.87447 | 22084 ft | 222 kts | 242° |
| 2026-04-28 19:19 | 36.84441 | -78.89027 | 22085 ft | 222 kts | 242° |
| 2026-04-28 19:19 | 36.83544 | -78.90608 | 22087 ft | 222 kts | 242° |
| 2026-04-28 19:19 | 36.82654 | -78.92175 | 22089 ft | 222 kts | 242° |
| 2026-04-28 19:20 | 36.81763 | -78.93740 | 22083 ft | 222 kts | 242° |
| 2026-04-28 19:20 | 36.80865 | -78.95307 | 22086 ft | 221 kts | 242° |
| 2026-04-28 19:20 | 36.79971 | -78.96867 | 22084 ft | 221 kts | 242° |
| 2026-04-28 19:20 | 36.79066 | -78.98447 | 22085 ft | 221 kts | 242° |
| 2026-04-28 19:21 | 36.78177 | -78.99998 | 22085 ft | 221 kts | 242° |
| 2026-04-28 19:21 | 36.77288 | -79.01546 | 22086 ft | 220 kts | 242° |
| 2026-04-28 19:21 | 36.76392 | -79.03108 | 22087 ft | 220 kts | 242° |
| 2026-04-28 19:21 | 36.75493 | -79.04674 | 22081 ft | 220 kts | 242° |
| 2026-04-28 19:22 | 36.74611 | -79.06210 | 22087 ft | 219 kts | 242° |
| 2026-04-28 19:22 | 36.74011 | -79.07255 | 22082 ft | 220 kts | 242° |
| 2026-04-28 19:22 | 36.72825 | -79.09319 | 22086 ft | 219 kts | 242° |
| 2026-04-28 19:22 | 36.71938 | -79.10861 | 22087 ft | 219 kts | 242° |
| 2026-04-28 19:23 | 36.71040 | -79.12422 | 22090 ft | 219 kts | 242° |
| 2026-04-28 19:23 | 36.70158 | -79.13957 | 22091 ft | 219 kts | 242° |
| 2026-04-28 19:23 | 36.69269 | -79.15500 | 22090 ft | 219 kts | 242° |
| 2026-04-28 19:23 | 36.68378 | -79.17046 | 22108 ft | 218 kts | 242° |
| 2026-04-28 19:24 | 36.67516 | -79.18536 | 22391 ft | 206 kts | 242° |
| 2026-04-28 19:24 | 36.66704 | -79.19937 | 22746 ft | 193 kts | 243° |
| 2026-04-28 19:24 | 36.65939 | -79.21255 | 23070 ft | 183 kts | 244° |
| 2026-04-28 19:24 | 36.65201 | -79.22541 | 23147 ft | 185 kts | 243° |
| 2026-04-28 19:25 | 36.64448 | -79.23852 | 23240 ft | 187 kts | 243° |
| 2026-04-28 19:25 | 36.63688 | -79.25169 | 23403 ft | 185 kts | 244° |
| 2026-04-28 19:25 | 36.62941 | -79.26464 | 23505 ft | 185 kts | 243° |
| 2026-04-28 19:25 | 36.62186 | -79.27772 | 23643 ft | 184 kts | 243° |
| 2026-04-28 19:26 | 36.61436 | -79.29073 | 23739 ft | 185 kts | 243° |
| 2026-04-28 19:26 | 36.60685 | -79.30371 | 23861 ft | 184 kts | 244° |
| 2026-04-28 19:26 | 36.59946 | -79.31647 | 23961 ft | 184 kts | 243° |
| 2026-04-28 19:26 | 36.59192 | -79.32954 | 24029 ft | 186 kts | 243° |
| 2026-04-28 19:27 | 36.58438 | -79.34255 | 24104 ft | 187 kts | 243° |
| 2026-04-28 19:27 | 36.57671 | -79.35583 | 24107 ft | 191 kts | 243° |
| 2026-04-28 19:27 | 36.56886 | -79.36939 | 24109 ft | 195 kts | 243° |
| 2026-04-28 19:27 | 36.56089 | -79.38315 | 24108 ft | 198 kts | 243° |
| 2026-04-28 19:28 | 36.55275 | -79.39719 | 24104 ft | 200 kts | 243° |
| 2026-04-28 19:28 | 36.54459 | -79.41125 | 24109 ft | 202 kts | 243° |
| 2026-04-28 19:28 | 36.53632 | -79.42549 | 24101 ft | 204 kts | 243° |
| 2026-04-28 19:28 | 36.52797 | -79.43988 | 24103 ft | 205 kts | 243° |
| 2026-04-28 19:29 | 36.51959 | -79.45428 | 24105 ft | 206 kts | 243° |
| 2026-04-28 19:29 | 36.51400 | -79.46390 | 24097 ft | 207 kts | 243° |
| 2026-04-28 19:29 | 36.50285 | -79.48305 | 24098 ft | 207 kts | 243° |
| 2026-04-28 19:29 | 36.49439 | -79.49762 | 24100 ft | 207 kts | 243° |
| 2026-04-28 19:30 | 36.48586 | -79.51228 | 24098 ft | 208 kts | 243° |
| 2026-04-28 19:30 | 36.47736 | -79.52687 | 24098 ft | 209 kts | 243° |
| 2026-04-28 19:30 | 36.46886 | -79.54146 | 24095 ft | 209 kts | 243° |
| 2026-04-28 19:30 | 36.46038 | -79.55601 | 24093 ft | 209 kts | 243° |
| 2026-04-28 19:31 | 36.45189 | -79.57056 | 24096 ft | 209 kts | 243° |
| 2026-04-28 19:31 | 36.44328 | -79.58533 | 24094 ft | 209 kts | 243° |
| 2026-04-28 19:31 | 36.43474 | -79.59997 | 24093 ft | 209 kts | 243° |
| 2026-04-28 19:31 | 36.42624 | -79.61453 | 24101 ft | 208 kts | 243° |
| 2026-04-28 19:32 | 36.41775 | -79.62907 | 24104 ft | 208 kts | 243° |
| 2026-04-28 19:32 | 36.40930 | -79.64353 | 24103 ft | 208 kts | 242° |
| 2026-04-28 19:32 | 36.40077 | -79.65813 | 24104 ft | 209 kts | 243° |
| 2026-04-28 19:32 | 36.39210 | -79.67297 | 24101 ft | 209 kts | 242° |
| 2026-04-28 19:33 | 36.38350 | -79.68768 | 24105 ft | 209 kts | 242° |
| 2026-04-28 19:33 | 36.37501 | -79.70218 | 24112 ft | 210 kts | 243° |
| 2026-04-28 19:33 | 36.36636 | -79.71696 | 24113 ft | 210 kts | 243° |
| 2026-04-28 19:33 | 36.35779 | -79.73160 | 24110 ft | 211 kts | 243° |
| 2026-04-28 19:34 | 36.34916 | -79.74632 | 24109 ft | 211 kts | 242° |
| 2026-04-28 19:34 | 36.34049 | -79.76113 | 24114 ft | 211 kts | 242° |
| 2026-04-28 19:34 | 36.33184 | -79.77586 | 24114 ft | 211 kts | 242° |
| 2026-04-28 19:34 | 36.32318 | -79.79063 | 24114 ft | 212 kts | 243° |
| 2026-04-28 19:35 | 36.31455 | -79.80532 | 24114 ft | 211 kts | 242° |
| 2026-04-28 19:35 | 36.30593 | -79.81999 | 24121 ft | 211 kts | 242° |
| 2026-04-28 19:35 | 36.29725 | -79.83478 | 24120 ft | 211 kts | 242° |
| 2026-04-28 19:35 | 36.28878 | -79.84919 | 24115 ft | 211 kts | 242° |
| 2026-04-28 19:36 | 36.28014 | -79.86390 | 24117 ft | 211 kts | 242° |
| 2026-04-28 19:36 | 36.27151 | -79.87856 | 24118 ft | 211 kts | 242° |
| 2026-04-28 19:36 | 36.26284 | -79.89330 | 24108 ft | 211 kts | 243° |
| 2026-04-28 19:36 | 36.25424 | -79.90791 | 24116 ft | 210 kts | 243° |
| 2026-04-28 19:37 | 36.24559 | -79.92260 | 24118 ft | 210 kts | 243° |
| 2026-04-28 19:37 | 36.23984 | -79.93236 | 24114 ft | 210 kts | 243° |
| 2026-04-28 19:37 | 36.22828 | -79.95197 | 24118 ft | 210 kts | 243° |
| 2026-04-28 19:37 | 36.21969 | -79.96655 | 24106 ft | 210 kts | 243° |
| 2026-04-28 19:38 | 36.21101 | -79.98125 | 24105 ft | 209 kts | 243° |
| 2026-04-28 19:38 | 36.20242 | -79.99580 | 24114 ft | 209 kts | 243° |
| 2026-04-28 19:38 | 36.19378 | -80.01045 | 24112 ft | 209 kts | 242° |
| 2026-04-28 19:38 | 36.18527 | -80.02483 | 24109 ft | 209 kts | 243° |
| 2026-04-28 19:39 | 36.17671 | -80.03934 | 24105 ft | 209 kts | 243° |
| 2026-04-28 19:39 | 36.16811 | -80.05389 | 24103 ft | 209 kts | 243° |
| 2026-04-28 19:39 | 36.15948 | -80.06846 | 24106 ft | 209 kts | 243° |
| 2026-04-28 19:39 | 36.15085 | -80.08306 | 24112 ft | 209 kts | 243° |
| 2026-04-28 19:40 | 36.14236 | -80.09741 | 24107 ft | 209 kts | 243° |
| 2026-04-28 19:40 | 36.13368 | -80.11209 | 24105 ft | 209 kts | 243° |
| 2026-04-28 19:40 | 36.12510 | -80.12657 | 24109 ft | 209 kts | 243° |
| 2026-04-28 19:40 | 36.11652 | -80.14105 | 24110 ft | 209 kts | 243° |
| 2026-04-28 19:41 | 36.10797 | -80.15548 | 24104 ft | 209 kts | 243° |
| 2026-04-28 19:41 | 36.09930 | -80.17011 | 24101 ft | 209 kts | 243° |
| 2026-04-28 19:41 | 36.09067 | -80.18465 | 24106 ft | 209 kts | 243° |
| 2026-04-28 19:41 | 36.08200 | -80.19925 | 24102 ft | 209 kts | 243° |
| 2026-04-28 19:42 | 36.07349 | -80.21358 | 24102 ft | 209 kts | 243° |
| 2026-04-28 19:42 | 36.06492 | -80.22801 | 24103 ft | 209 kts | 243° |
| 2026-04-28 19:42 | 36.05627 | -80.24257 | 24101 ft | 209 kts | 243° |
| 2026-04-28 19:42 | 36.05060 | -80.25210 | 24097 ft | 209 kts | 243° |
| 2026-04-28 19:43 | 36.03909 | -80.27145 | 24096 ft | 208 kts | 243° |
| 2026-04-28 19:43 | 36.03059 | -80.28574 | 24096 ft | 208 kts | 243° |
| 2026-04-28 19:43 | 36.02200 | -80.30016 | 24098 ft | 208 kts | 243° |
| 2026-04-28 19:43 | 36.01344 | -80.31454 | 24096 ft | 208 kts | 243° |
| 2026-04-28 19:44 | 36.00488 | -80.32891 | 24096 ft | 207 kts | 243° |
| 2026-04-28 19:44 | 35.99631 | -80.34328 | 24099 ft | 207 kts | 243° |
| 2026-04-28 19:44 | 35.98783 | -80.35751 | 24101 ft | 207 kts | 243° |
| 2026-04-28 19:44 | 35.97924 | -80.37192 | 24103 ft | 207 kts | 243° |
| 2026-04-28 19:45 | 35.97076 | -80.38613 | 24096 ft | 207 kts | 243° |
| 2026-04-28 19:45 | 35.96217 | -80.40054 | 24095 ft | 207 kts | 243° |
| 2026-04-28 19:45 | 35.95374 | -80.41472 | 24094 ft | 207 kts | 243° |
| 2026-04-28 19:45 | 35.94518 | -80.42910 | 24102 ft | 206 kts | 243° |
| 2026-04-28 19:46 | 35.93673 | -80.44327 | 24105 ft | 207 kts | 243° |
| 2026-04-28 19:46 | 35.92817 | -80.45764 | 24101 ft | 207 kts | 243° |
| 2026-04-28 19:46 | 35.91970 | -80.47185 | 24102 ft | 207 kts | 243° |
| 2026-04-28 19:46 | 35.91113 | -80.48621 | 24096 ft | 207 kts | 243° |
| 2026-04-28 19:47 | 35.90252 | -80.50065 | 24093 ft | 207 kts | 243° |
| 2026-04-28 19:47 | 35.89417 | -80.51465 | 24095 ft | 207 kts | 244° |
| 2026-04-28 19:47 | 35.88545 | -80.52924 | 24096 ft | 207 kts | 243° |
| 2026-04-28 19:47 | 35.87694 | -80.54348 | 24095 ft | 207 kts | 244° |
| 2026-04-28 19:48 | 35.86830 | -80.55793 | 24091 ft | 206 kts | 243° |
| 2026-04-28 19:48 | 35.85973 | -80.57227 | 24096 ft | 206 kts | 243° |
| 2026-04-28 19:48 | 35.85124 | -80.58646 | 24093 ft | 206 kts | 243° |
| 2026-04-28 19:48 | 35.84273 | -80.60069 | 24097 ft | 206 kts | 243° |
| 2026-04-28 19:49 | 35.83412 | -80.61506 | 24097 ft | 206 kts | 243° |
| 2026-04-28 19:49 | 35.82566 | -80.62920 | 24097 ft | 206 kts | 243° |
| 2026-04-28 19:49 | 35.81708 | -80.64350 | 24096 ft | 206 kts | 243° |
| 2026-04-28 19:49 | 35.80854 | -80.65775 | 24098 ft | 206 kts | 243° |
| 2026-04-28 19:50 | 35.79130 | -80.68652 | 24113 ft | 207 kts | 243° |
| 2026-04-28 19:50 | 35.78283 | -80.70063 | 24108 ft | 207 kts | 243° |
| 2026-04-28 19:50 | 35.77417 | -80.71504 | 24110 ft | 208 kts | 243° |
| 2026-04-28 19:51 | 35.76548 | -80.72949 | 24109 ft | 207 kts | 243° |
| 2026-04-28 19:51 | 35.75695 | -80.74369 | 24116 ft | 208 kts | 243° |
| 2026-04-28 19:51 | 35.74835 | -80.75800 | 24116 ft | 208 kts | 243° |
| 2026-04-28 19:51 | 35.73970 | -80.77238 | 24112 ft | 208 kts | 243° |
| 2026-04-28 19:52 | 35.73103 | -80.78679 | 24112 ft | 208 kts | 242° |
| 2026-04-28 19:52 | 35.72247 | -80.80102 | 24115 ft | 208 kts | 243° |
| 2026-04-28 19:52 | 35.71373 | -80.81552 | 24117 ft | 208 kts | 243° |
| 2026-04-28 19:52 | 35.70505 | -80.82995 | 24115 ft | 209 kts | 243° |
| 2026-04-28 19:53 | 35.69646 | -80.84419 | 24108 ft | 209 kts | 243° |
| 2026-04-28 19:53 | 35.68777 | -80.85860 | 24115 ft | 209 kts | 243° |
| 2026-04-28 19:53 | 35.67914 | -80.87289 | 24113 ft | 208 kts | 242° |
| 2026-04-28 19:53 | 35.67045 | -80.88729 | 24116 ft | 208 kts | 243° |
| 2026-04-28 19:54 | 35.66180 | -80.90161 | 24121 ft | 208 kts | 243° |
| 2026-04-28 19:54 | 35.65328 | -80.91575 | 24118 ft | 208 kts | 242° |
| 2026-04-28 19:54 | 35.64455 | -80.93018 | 24112 ft | 208 kts | 243° |
| 2026-04-28 19:54 | 35.63587 | -80.94454 | 24115 ft | 208 kts | 242° |
| 2026-04-28 19:55 | 35.62728 | -80.95874 | 24113 ft | 209 kts | 243° |
| 2026-04-28 19:55 | 35.61863 | -80.97304 | 24115 ft | 208 kts | 243° |
| 2026-04-28 19:55 | 35.60989 | -80.98749 | 24120 ft | 208 kts | 243° |
| 2026-04-28 19:55 | 35.60133 | -81.00162 | 24117 ft | 208 kts | 243° |
| 2026-04-28 19:56 | 35.59256 | -81.01609 | 24118 ft | 209 kts | 243° |
| 2026-04-28 19:56 | 35.58391 | -81.03038 | 24116 ft | 209 kts | 243° |
| 2026-04-28 19:56 | 35.57532 | -81.04453 | 24121 ft | 208 kts | 243° |
| 2026-04-28 19:56 | 35.56655 | -81.05900 | 24121 ft | 208 kts | 243° |
| 2026-04-28 19:57 | 35.55790 | -81.07326 | 24124 ft | 208 kts | 243° |
| 2026-04-28 19:57 | 35.54929 | -81.08745 | 24122 ft | 208 kts | 243° |
| 2026-04-28 19:57 | 35.54060 | -81.10175 | 24123 ft | 208 kts | 243° |
| 2026-04-28 19:57 | 35.53202 | -81.11588 | 24118 ft | 208 kts | 243° |
| 2026-04-28 19:58 | 35.52334 | -81.13017 | 24117 ft | 208 kts | 243° |
| 2026-04-28 19:58 | 35.51469 | -81.14439 | 24122 ft | 208 kts | 243° |
| 2026-04-28 19:58 | 35.50600 | -81.15868 | 24121 ft | 208 kts | 243° |
| 2026-04-28 19:58 | 35.49737 | -81.17286 | 24120 ft | 207 kts | 243° |
| 2026-04-28 19:59 | 35.48873 | -81.18705 | 24125 ft | 207 kts | 243° |
| 2026-04-28 19:59 | 35.48008 | -81.20126 | 24120 ft | 207 kts | 243° |
| 2026-04-28 19:59 | 35.47150 | -81.21535 | 24127 ft | 207 kts | 243° |
| 2026-04-28 19:59 | 35.46291 | -81.22945 | 24124 ft | 207 kts | 243° |
| 2026-04-28 20:00 | 35.45421 | -81.24372 | 24125 ft | 207 kts | 243° |
| 2026-04-28 20:00 | 35.44564 | -81.25775 | 24124 ft | 207 kts | 243° |
| 2026-04-28 20:00 | 35.43694 | -81.27201 | 24121 ft | 207 kts | 243° |
| 2026-04-28 20:00 | 35.42834 | -81.28611 | 24122 ft | 207 kts | 243° |
| 2026-04-28 20:01 | 35.41972 | -81.30023 | 24119 ft | 207 kts | 243° |
| 2026-04-28 20:01 | 35.41108 | -81.31437 | 24117 ft | 207 kts | 243° |
| 2026-04-28 20:01 | 35.40246 | -81.32848 | 24117 ft | 207 kts | 243° |
| 2026-04-28 20:01 | 35.39379 | -81.34264 | 24108 ft | 207 kts | 243° |
| 2026-04-28 20:02 | 35.38512 | -81.35684 | 24115 ft | 207 kts | 243° |
| 2026-04-28 20:02 | 35.37651 | -81.37091 | 24119 ft | 207 kts | 243° |
| 2026-04-28 20:02 | 35.36785 | -81.38505 | 24116 ft | 207 kts | 243° |
| 2026-04-28 20:02 | 35.35917 | -81.39923 | 24111 ft | 207 kts | 243° |
| 2026-04-28 20:03 | 35.35056 | -81.41328 | 24117 ft | 206 kts | 243° |
| 2026-04-28 20:03 | 35.34195 | -81.42733 | 24112 ft | 206 kts | 243° |
| 2026-04-28 20:03 | 35.33329 | -81.44145 | 24114 ft | 206 kts | 243° |
| 2026-04-28 20:03 | 35.32468 | -81.45550 | 24113 ft | 206 kts | 243° |
| 2026-04-28 20:04 | 35.31599 | -81.46965 | 24113 ft | 206 kts | 243° |
| 2026-04-28 20:04 | 35.30748 | -81.48352 | 24120 ft | 206 kts | 243° |
| 2026-04-28 20:04 | 35.29876 | -81.49771 | 24124 ft | 206 kts | 243° |
| 2026-04-28 20:04 | 35.29016 | -81.51171 | 24122 ft | 206 kts | 243° |
| 2026-04-28 20:05 | 35.28157 | -81.52568 | 24126 ft | 206 kts | 243° |
| 2026-04-28 20:05 | 35.27287 | -81.53983 | 24127 ft | 206 kts | 243° |
| 2026-04-28 20:05 | 35.26427 | -81.55379 | 24126 ft | 206 kts | 243° |
| 2026-04-28 20:05 | 35.25565 | -81.56782 | 24122 ft | 206 kts | 243° |
| 2026-04-28 20:06 | 35.24697 | -81.58192 | 24120 ft | 206 kts | 243° |
| 2026-04-28 20:06 | 35.23838 | -81.59586 | 24122 ft | 206 kts | 243° |
| 2026-04-28 20:06 | 35.22980 | -81.60979 | 24124 ft | 206 kts | 243° |
| 2026-04-28 20:06 | 35.22111 | -81.62389 | 24129 ft | 206 kts | 243° |
| 2026-04-28 20:07 | 35.21254 | -81.63779 | 24125 ft | 206 kts | 243° |
| 2026-04-28 20:07 | 35.20673 | -81.64719 | 24127 ft | 206 kts | 243° |
| 2026-04-28 20:07 | 35.19517 | -81.66594 | 24137 ft | 207 kts | 242° |
| 2026-04-28 20:07 | 35.18650 | -81.68000 | 24135 ft | 207 kts | 242° |
| 2026-04-28 20:08 | 35.17765 | -81.69432 | 24136 ft | 208 kts | 242° |
| 2026-04-28 20:08 | 35.16896 | -81.70838 | 24133 ft | 208 kts | 243° |
| 2026-04-28 20:08 | 35.16022 | -81.72253 | 24135 ft | 209 kts | 243° |
| 2026-04-28 20:08 | 35.15143 | -81.73675 | 24133 ft | 209 kts | 242° |
| 2026-04-28 20:09 | 35.14267 | -81.75091 | 24134 ft | 209 kts | 242° |
| 2026-04-28 20:09 | 35.13385 | -81.76514 | 24135 ft | 209 kts | 242° |
| 2026-04-28 20:09 | 35.12508 | -81.77932 | 24132 ft | 210 kts | 242° |
| 2026-04-28 20:09 | 35.11624 | -81.79360 | 24133 ft | 210 kts | 242° |
| 2026-04-28 20:10 | 35.10736 | -81.80793 | 24130 ft | 211 kts | 242° |
| 2026-04-28 20:10 | 35.09855 | -81.82214 | 24134 ft | 210 kts | 242° |
| 2026-04-28 20:10 | 35.08975 | -81.83633 | 24139 ft | 210 kts | 242° |
| 2026-04-28 20:10 | 35.08086 | -81.85066 | 24140 ft | 210 kts | 242° |
| 2026-04-28 20:11 | 35.07207 | -81.86481 | 24139 ft | 210 kts | 243° |
| 2026-04-28 20:11 | 35.06312 | -81.87923 | 24140 ft | 210 kts | 243° |
| 2026-04-28 20:11 | 35.05433 | -81.89339 | 24144 ft | 210 kts | 242° |
| 2026-04-28 20:11 | 35.04551 | -81.90758 | 24142 ft | 210 kts | 242° |
| 2026-04-28 20:12 | 35.03658 | -81.92194 | 24139 ft | 210 kts | 242° |
| 2026-04-28 20:12 | 35.02782 | -81.93618 | 24140 ft | 210 kts | 243° |
| 2026-04-28 20:12 | 35.01937 | -81.95069 | 24141 ft | 209 kts | 243° |
| 2026-04-28 20:12 | 35.01380 | -81.96028 | 24141 ft | 209 kts | 244° |
| 2026-04-28 20:13 | 35.00264 | -81.97945 | 24142 ft | 209 kts | 244° |
| 2026-04-28 20:13 | 34.99417 | -81.99393 | 24146 ft | 208 kts | 243° |
| 2026-04-28 20:13 | 34.98564 | -82.00851 | 24145 ft | 208 kts | 244° |
| 2026-04-28 20:13 | 34.97723 | -82.02286 | 24147 ft | 209 kts | 244° |
| 2026-04-28 20:14 | 34.96874 | -82.03734 | 24147 ft | 209 kts | 243° |
| 2026-04-28 20:14 | 34.96022 | -82.05187 | 24147 ft | 209 kts | 243° |
| 2026-04-28 20:14 | 34.95176 | -82.06625 | 24146 ft | 209 kts | 243° |
| 2026-04-28 20:14 | 34.94330 | -82.08065 | 24143 ft | 208 kts | 243° |
| 2026-04-28 20:15 | 34.93480 | -82.09511 | 24141 ft | 208 kts | 243° |
| 2026-04-28 20:15 | 34.92639 | -82.10941 | 24147 ft | 208 kts | 243° |
| 2026-04-28 20:15 | 34.91791 | -82.12383 | 24144 ft | 208 kts | 244° |
| 2026-04-28 20:15 | 34.90953 | -82.13807 | 24148 ft | 208 kts | 243° |
| 2026-04-28 20:16 | 34.90103 | -82.15250 | 24147 ft | 208 kts | 243° |
| 2026-04-28 20:16 | 34.89263 | -82.16676 | 24147 ft | 208 kts | 243° |
| 2026-04-28 20:16 | 34.88444 | -82.18064 | 24146 ft | 209 kts | 243° |
| 2026-04-28 20:16 | 34.87593 | -82.19509 | 24144 ft | 209 kts | 244° |
| 2026-04-28 20:17 | 34.86744 | -82.20946 | 24144 ft | 209 kts | 244° |
| 2026-04-28 20:17 | 34.85891 | -82.22391 | 24146 ft | 208 kts | 243° |
| 2026-04-28 20:17 | 34.85045 | -82.23825 | 24147 ft | 208 kts | 243° |
| 2026-04-28 20:17 | 34.84197 | -82.25259 | 24143 ft | 208 kts | 243° |
| 2026-04-28 20:18 | 34.83353 | -82.26688 | 24145 ft | 208 kts | 243° |
| 2026-04-28 20:18 | 34.82796 | -82.27631 | 24145 ft | 208 kts | 243° |
| 2026-04-28 20:18 | 34.81671 | -82.29533 | 24139 ft | 208 kts | 243° |
| 2026-04-28 20:18 | 34.80827 | -82.30961 | 24136 ft | 208 kts | 243° |
| 2026-04-28 20:19 | 34.79980 | -82.32390 | 24135 ft | 208 kts | 243° |
| 2026-04-28 20:19 | 34.79129 | -82.33828 | 24138 ft | 208 kts | 243° |
| 2026-04-28 20:19 | 34.78292 | -82.35242 | 24137 ft | 208 kts | 243° |
| 2026-04-28 20:19 | 34.77440 | -82.36679 | 24136 ft | 208 kts | 243° |
| 2026-04-28 20:20 | 34.76603 | -82.38093 | 24142 ft | 208 kts | 243° |
| 2026-04-28 20:20 | 34.75753 | -82.39526 | 24140 ft | 208 kts | 243° |
| 2026-04-28 20:20 | 34.74907 | -82.40951 | 24139 ft | 208 kts | 243° |
| 2026-04-28 20:20 | 34.74056 | -82.42385 | 24137 ft | 208 kts | 242° |
| 2026-04-28 20:21 | 34.73198 | -82.43832 | 24142 ft | 208 kts | 243° |
| 2026-04-28 20:21 | 34.72348 | -82.45261 | 24139 ft | 209 kts | 242° |
| 2026-04-28 20:21 | 34.71493 | -82.46699 | 24138 ft | 208 kts | 243° |
| 2026-04-28 20:21 | 34.70648 | -82.48122 | 24143 ft | 208 kts | 243° |
| 2026-04-28 20:22 | 34.69795 | -82.49558 | 24141 ft | 209 kts | 243° |
| 2026-04-28 20:22 | 34.68951 | -82.50974 | 24139 ft | 209 kts | 243° |
| 2026-04-28 20:22 | 34.68095 | -82.52412 | 24144 ft | 208 kts | 243° |
| 2026-04-28 20:22 | 34.67249 | -82.53834 | 24142 ft | 208 kts | 242° |
| 2026-04-28 20:23 | 34.66396 | -82.55267 | 24142 ft | 208 kts | 243° |
| 2026-04-28 20:23 | 34.65546 | -82.56693 | 24145 ft | 208 kts | 242° |
| 2026-04-28 20:23 | 34.64695 | -82.58119 | 24146 ft | 209 kts | 242° |
| 2026-04-28 20:23 | 34.63845 | -82.59544 | 24146 ft | 209 kts | 242° |
| 2026-04-28 20:24 | 34.62993 | -82.60973 | 24144 ft | 209 kts | 243° |
| 2026-04-28 20:24 | 34.62137 | -82.62406 | 24145 ft | 209 kts | 242° |
| 2026-04-28 20:24 | 34.61288 | -82.63829 | 24145 ft | 209 kts | 243° |
| 2026-04-28 20:24 | 34.60444 | -82.65241 | 24145 ft | 209 kts | 242° |
| 2026-04-28 20:25 | 34.59574 | -82.66698 | 24149 ft | 209 kts | 242° |
| 2026-04-28 20:25 | 34.58999 | -82.67658 | 24150 ft | 209 kts | 242° |
| 2026-04-28 20:25 | 34.58446 | -82.68584 | 24153 ft | 209 kts | 242° |
| 2026-04-28 20:25 | 34.57586 | -82.70023 | 24157 ft | 210 kts | 242° |
| 2026-04-28 20:26 | 34.56720 | -82.71469 | 24155 ft | 210 kts | 242° |
| 2026-04-28 20:26 | 34.55867 | -82.72896 | 24153 ft | 211 kts | 242° |
| 2026-04-28 20:26 | 34.54997 | -82.74348 | 24151 ft | 211 kts | 242° |
| 2026-04-28 20:26 | 34.54131 | -82.75794 | 24155 ft | 211 kts | 241° |
| 2026-04-28 20:27 | 34.53274 | -82.77223 | 24154 ft | 212 kts | 242° |
| 2026-04-28 20:27 | 34.52403 | -82.78677 | 24154 ft | 212 kts | 241° |
| 2026-04-28 20:27 | 34.51522 | -82.80144 | 24156 ft | 212 kts | 242° |
| 2026-04-28 20:27 | 34.50653 | -82.81593 | 24155 ft | 212 kts | 242° |
| 2026-04-28 20:28 | 34.49789 | -82.83031 | 24154 ft | 212 kts | 242° |
| 2026-04-28 20:28 | 34.48920 | -82.84480 | 24154 ft | 212 kts | 242° |
| 2026-04-28 20:28 | 34.48041 | -82.85941 | 24151 ft | 213 kts | 242° |
| 2026-04-28 20:28 | 34.47164 | -82.87401 | 24153 ft | 213 kts | 242° |
| 2026-04-28 20:29 | 34.46298 | -82.88841 | 24150 ft | 212 kts | 242° |
| 2026-04-28 20:29 | 34.45428 | -82.90287 | 24154 ft | 212 kts | 241° |
| 2026-04-28 20:29 | 34.44548 | -82.91749 | 24152 ft | 213 kts | 241° |
| 2026-04-28 20:29 | 34.43678 | -82.93194 | 24146 ft | 213 kts | 242° |
| 2026-04-28 20:30 | 34.42810 | -82.94634 | 24144 ft | 213 kts | 242° |
| 2026-04-28 20:30 | 34.41938 | -82.96081 | 24143 ft | 213 kts | 241° |
| 2026-04-28 20:30 | 34.41056 | -82.97545 | 24145 ft | 213 kts | 241° |
| 2026-04-28 20:30 | 34.40190 | -82.98980 | 24147 ft | 213 kts | 242° |
| 2026-04-28 20:31 | 34.39318 | -83.00426 | 24150 ft | 213 kts | 242° |
| 2026-04-28 20:31 | 34.38435 | -83.01890 | 24150 ft | 213 kts | 242° |
| 2026-04-28 20:31 | 34.37559 | -83.03340 | 24147 ft | 213 kts | 242° |
| 2026-04-28 20:31 | 34.36621 | -83.04730 | 24148 ft | 223 kts | 226° |
| 2026-04-28 20:32 | 34.35077 | -83.05313 | 24177 ft | 249 kts | 192° |
| 2026-04-28 20:32 | 34.33309 | -83.05196 | 24154 ft | 256 kts | 184° |
| 2026-04-28 20:32 | 34.31527 | -83.04968 | 24148 ft | 257 kts | 184° |
| 2026-04-28 20:32 | 34.29733 | -83.04726 | 24150 ft | 258 kts | 183° |
| 2026-04-28 20:33 | 34.27943 | -83.04485 | 24148 ft | 258 kts | 184° |
| 2026-04-28 20:33 | 34.26156 | -83.04250 | 24148 ft | 258 kts | 183° |
| 2026-04-28 20:33 | 34.24379 | -83.04023 | 24148 ft | 257 kts | 183° |
| 2026-04-28 20:33 | 34.22586 | -83.03796 | 24150 ft | 256 kts | 185° |
| 2026-04-28 20:34 | 34.20909 | -83.04105 | 24153 ft | 235 kts | 211° |
| 2026-04-28 20:34 | 34.19470 | -83.04970 | 24154 ft | 228 kts | 220° |
| 2026-04-28 20:34 | 34.18033 | -83.05851 | 24164 ft | 233 kts | 213° |
| 2026-04-28 20:34 | 34.16524 | -83.06597 | 24160 ft | 235 kts | 211° |
| 2026-04-28 20:35 | 34.14989 | -83.07302 | 24159 ft | 236 kts | 211° |
| 2026-04-28 20:35 | 34.13437 | -83.08022 | 24164 ft | 236 kts | 211° |
| 2026-04-28 20:35 | 34.11917 | -83.08746 | 24161 ft | 235 kts | 211° |
| 2026-04-28 20:35 | 34.10402 | -83.09482 | 24165 ft | 235 kts | 212° |
| 2026-04-28 20:36 | 34.08864 | -83.10239 | 24161 ft | 236 kts | 212° |
| 2026-04-28 20:36 | 34.07347 | -83.10992 | 24159 ft | 236 kts | 212° |
| 2026-04-28 20:36 | 34.05830 | -83.11748 | 24157 ft | 236 kts | 212° |
| 2026-04-28 20:36 | 34.04311 | -83.12508 | 24159 ft | 236 kts | 212° |
| 2026-04-28 20:37 | 34.02777 | -83.13277 | 24154 ft | 236 kts | 212° |
| 2026-04-28 20:37 | 34.01263 | -83.14037 | 24153 ft | 235 kts | 212° |
| 2026-04-28 20:37 | 33.99755 | -83.14795 | 24150 ft | 235 kts | 212° |
| 2026-04-28 20:37 | 33.98250 | -83.15551 | 24148 ft | 235 kts | 212° |
| 2026-04-28 20:38 | 33.96723 | -83.16319 | 24150 ft | 235 kts | 212° |
| 2026-04-28 20:38 | 33.95213 | -83.17078 | 24150 ft | 235 kts | 212° |
| 2026-04-28 20:38 | 33.93715 | -83.17831 | 24148 ft | 235 kts | 212° |
| 2026-04-28 20:38 | 33.92181 | -83.18601 | 24148 ft | 235 kts | 212° |
| 2026-04-28 20:39 | 33.90680 | -83.19355 | 24143 ft | 236 kts | 212° |
| 2026-04-28 20:39 | 33.89193 | -83.20101 | 24146 ft | 235 kts | 212° |
| 2026-04-28 20:39 | 33.87648 | -83.20877 | 24145 ft | 235 kts | 212° |
| 2026-04-28 20:39 | 33.86141 | -83.21632 | 24144 ft | 235 kts | 212° |
| 2026-04-28 20:40 | 33.84616 | -83.22398 | 24143 ft | 236 kts | 212° |
| 2026-04-28 20:40 | 33.83104 | -83.23155 | 24143 ft | 235 kts | 212° |
| 2026-04-28 20:40 | 33.81589 | -83.23914 | 24143 ft | 236 kts | 212° |
| 2026-04-28 20:40 | 33.80091 | -83.24664 | 24145 ft | 235 kts | 212° |
| 2026-04-28 20:41 | 33.78555 | -83.25434 | 24141 ft | 236 kts | 212° |
| 2026-04-28 20:41 | 33.77045 | -83.26189 | 24144 ft | 236 kts | 212° |
| 2026-04-28 20:41 | 33.75534 | -83.26945 | 24144 ft | 236 kts | 212° |
| 2026-04-28 20:41 | 33.74012 | -83.27707 | 24144 ft | 236 kts | 212° |
| 2026-04-28 20:42 | 33.72474 | -83.28475 | 24142 ft | 237 kts | 212° |
| 2026-04-28 20:42 | 33.70945 | -83.29239 | 24143 ft | 236 kts | 212° |
| 2026-04-28 20:42 | 33.69427 | -83.29997 | 24143 ft | 237 kts | 212° |
| 2026-04-28 20:42 | 33.67907 | -83.30756 | 24145 ft | 237 kts | 212° |
| 2026-04-28 20:43 | 33.66377 | -83.31520 | 24148 ft | 236 kts | 212° |
| 2026-04-28 20:43 | 33.64861 | -83.32276 | 24147 ft | 236 kts | 212° |
| 2026-04-28 20:43 | 33.63325 | -83.33042 | 24143 ft | 236 kts | 212° |
| 2026-04-28 20:43 | 33.61813 | -83.33797 | 24145 ft | 236 kts | 212° |
| 2026-04-28 20:44 | 33.60287 | -83.34557 | 24147 ft | 236 kts | 212° |
| 2026-04-28 20:44 | 33.58756 | -83.35319 | 24142 ft | 237 kts | 212° |
| 2026-04-28 20:44 | 33.57225 | -83.36082 | 24140 ft | 237 kts | 212° |
| 2026-04-28 20:44 | 33.55700 | -83.36840 | 24140 ft | 237 kts | 212° |
| 2026-04-28 20:45 | 33.54174 | -83.37600 | 24137 ft | 237 kts | 212° |
| 2026-04-28 20:45 | 33.52642 | -83.38361 | 24136 ft | 237 kts | 211° |
| 2026-04-28 20:45 | 33.51132 | -83.39113 | 24137 ft | 237 kts | 212° |
| 2026-04-28 20:45 | 33.49606 | -83.39871 | 24137 ft | 237 kts | 212° |
| 2026-04-28 20:46 | 33.48068 | -83.40636 | 24134 ft | 238 kts | 211° |
| 2026-04-28 20:46 | 33.46545 | -83.41392 | 24134 ft | 237 kts | 211° |
| 2026-04-28 20:46 | 33.45026 | -83.42145 | 24132 ft | 237 kts | 211° |
| 2026-04-28 20:46 | 33.43489 | -83.42909 | 24134 ft | 237 kts | 212° |
| 2026-04-28 20:47 | 33.41963 | -83.43665 | 24134 ft | 237 kts | 212° |
| 2026-04-28 20:47 | 33.40441 | -83.44421 | 24137 ft | 237 kts | 212° |
| 2026-04-28 20:47 | 33.38900 | -83.45184 | 24137 ft | 238 kts | 211° |
| 2026-04-28 20:47 | 33.37369 | -83.45943 | 24137 ft | 238 kts | 211° |
| 2026-04-28 20:48 | 33.35828 | -83.46706 | 24132 ft | 238 kts | 211° |
| 2026-04-28 20:48 | 33.34300 | -83.47461 | 24135 ft | 237 kts | 212° |
| 2026-04-28 20:48 | 33.32762 | -83.48223 | 24130 ft | 237 kts | 211° |
| 2026-04-28 20:48 | 33.31245 | -83.48974 | 24135 ft | 237 kts | 211° |
| 2026-04-28 20:49 | 33.29718 | -83.49728 | 24132 ft | 237 kts | 211° |
| 2026-04-28 20:49 | 33.28177 | -83.50491 | 24138 ft | 237 kts | 212° |
| 2026-04-28 20:49 | 33.26654 | -83.51244 | 24137 ft | 237 kts | 212° |
| 2026-04-28 20:49 | 33.25122 | -83.52000 | 24135 ft | 237 kts | 212° |
| 2026-04-28 20:50 | 33.23593 | -83.52756 | 24136 ft | 237 kts | 211° |
| 2026-04-28 20:50 | 33.22053 | -83.53515 | 24137 ft | 237 kts | 211° |
| 2026-04-28 20:50 | 33.20532 | -83.54266 | 24138 ft | 237 kts | 211° |
| 2026-04-28 20:50 | 33.19008 | -83.55019 | 24138 ft | 238 kts | 211° |
| 2026-04-28 20:51 | 33.17458 | -83.55782 | 24139 ft | 238 kts | 211° |
| 2026-04-28 20:51 | 33.15934 | -83.56533 | 24139 ft | 238 kts | 211° |
| 2026-04-28 20:51 | 33.14384 | -83.57297 | 24139 ft | 238 kts | 211° |
| 2026-04-28 20:51 | 33.12849 | -83.58053 | 24139 ft | 238 kts | 212° |
| 2026-04-28 20:52 | 33.11311 | -83.58810 | 24139 ft | 239 kts | 211° |
| 2026-04-28 20:52 | 33.09779 | -83.59563 | 24139 ft | 239 kts | 211° |
| 2026-04-28 20:52 | 33.08246 | -83.60317 | 24138 ft | 238 kts | 212° |
| 2026-04-28 20:52 | 33.06707 | -83.61074 | 24136 ft | 238 kts | 212° |
| 2026-04-28 20:53 | 33.03640 | -83.62582 | 24138 ft | 238 kts | 211° |
| 2026-04-28 20:53 | 33.02095 | -83.63340 | 24138 ft | 238 kts | 211° |
| 2026-04-28 20:53 | 33.00575 | -83.64086 | 24142 ft | 238 kts | 211° |
| 2026-04-28 20:54 | 32.99034 | -83.64843 | 24141 ft | 238 kts | 212° |
| 2026-04-28 20:54 | 32.97501 | -83.65595 | 24151 ft | 238 kts | 211° |
| 2026-04-28 20:54 | 32.95941 | -83.66361 | 24154 ft | 239 kts | 211° |
| 2026-04-28 20:54 | 32.94394 | -83.67120 | 24155 ft | 240 kts | 211° |
| 2026-04-28 20:55 | 32.92839 | -83.67881 | 24152 ft | 240 kts | 211° |
| 2026-04-28 20:55 | 32.91302 | -83.68633 | 24153 ft | 241 kts | 211° |
| 2026-04-28 20:55 | 32.89859 | -83.69340 | 24153 ft | 241 kts | 211° |
| 2026-04-28 20:55 | 32.88241 | -83.70132 | 24151 ft | 241 kts | 210° |
| 2026-04-28 20:56 | 32.86675 | -83.70899 | 24151 ft | 241 kts | 211° |
| 2026-04-28 20:56 | 32.85117 | -83.71661 | 24153 ft | 241 kts | 211° |
| 2026-04-28 20:56 | 32.83559 | -83.72422 | 24152 ft | 241 kts | 211° |
| 2026-04-28 20:56 | 32.82007 | -83.73180 | 24150 ft | 241 kts | 211° |
| 2026-04-28 20:57 | 32.80466 | -83.73933 | 24154 ft | 241 kts | 211° |
| 2026-04-28 20:57 | 32.78909 | -83.74694 | 24151 ft | 241 kts | 211° |
| 2026-04-28 20:57 | 32.77349 | -83.75455 | 24152 ft | 241 kts | 211° |
| 2026-04-28 20:57 | 32.75797 | -83.76213 | 24150 ft | 242 kts | 211° |
| 2026-04-28 20:58 | 32.74221 | -83.76982 | 24150 ft | 242 kts | 211° |
| 2026-04-28 20:58 | 32.72662 | -83.77743 | 24150 ft | 242 kts | 211° |
| 2026-04-28 20:58 | 32.71109 | -83.78499 | 24151 ft | 242 kts | 211° |
| 2026-04-28 20:58 | 32.69532 | -83.79267 | 24154 ft | 243 kts | 211° |
| 2026-04-28 20:59 | 32.67976 | -83.80025 | 24155 ft | 243 kts | 211° |
| 2026-04-28 20:59 | 32.66409 | -83.80788 | 24152 ft | 243 kts | 211° |
| 2026-04-28 20:59 | 32.64853 | -83.81544 | 24151 ft | 243 kts | 211° |
| 2026-04-28 20:59 | 32.63276 | -83.82313 | 24150 ft | 243 kts | 211° |
| 2026-04-28 21:00 | 32.61724 | -83.83067 | 24153 ft | 243 kts | 211° |
| 2026-04-28 21:00 | 32.60145 | -83.83836 | 24151 ft | 243 kts | 211° |
| 2026-04-28 21:00 | 32.58586 | -83.84592 | 24153 ft | 243 kts | 210° |
| 2026-04-28 21:00 | 32.57023 | -83.85352 | 24150 ft | 243 kts | 210° |
| 2026-04-28 21:01 | 32.55442 | -83.86119 | 24155 ft | 243 kts | 211° |
| 2026-04-28 21:01 | 32.53880 | -83.86877 | 24154 ft | 243 kts | 211° |
| 2026-04-28 21:01 | 32.52313 | -83.87639 | 24153 ft | 244 kts | 211° |
| 2026-04-28 21:01 | 32.50729 | -83.88406 | 24151 ft | 244 kts | 211° |
| 2026-04-28 21:02 | 32.49159 | -83.89168 | 24151 ft | 244 kts | 211° |
| 2026-04-28 21:02 | 32.47586 | -83.89930 | 24150 ft | 244 kts | 211° |
| 2026-04-28 21:02 | 32.46011 | -83.90693 | 24146 ft | 244 kts | 211° |
| 2026-04-28 21:02 | 32.44439 | -83.91454 | 24142 ft | 244 kts | 211° |
| 2026-04-28 21:03 | 32.42858 | -83.92220 | 24142 ft | 244 kts | 211° |
| 2026-04-28 21:03 | 32.41295 | -83.92976 | 24139 ft | 244 kts | 211° |
| 2026-04-28 21:03 | 32.39716 | -83.93739 | 24144 ft | 243 kts | 211° |
| 2026-04-28 21:03 | 32.38160 | -83.94492 | 24145 ft | 243 kts | 211° |
| 2026-04-28 21:04 | 32.36601 | -83.95245 | 24143 ft | 243 kts | 211° |
| 2026-04-28 21:04 | 32.35017 | -83.96011 | 24139 ft | 243 kts | 211° |
| 2026-04-28 21:04 | 32.33458 | -83.96764 | 24135 ft | 243 kts | 211° |
| 2026-04-28 21:04 | 32.31901 | -83.97516 | 24135 ft | 243 kts | 211° |
| 2026-04-28 21:05 | 32.30323 | -83.98277 | 24136 ft | 243 kts | 211° |
| 2026-04-28 21:05 | 32.28763 | -83.99031 | 24136 ft | 243 kts | 211° |
| 2026-04-28 21:05 | 32.27177 | -83.99795 | 24133 ft | 243 kts | 211° |
| 2026-04-28 21:05 | 32.25607 | -84.00553 | 24134 ft | 243 kts | 211° |
| 2026-04-28 21:06 | 32.24025 | -84.01315 | 24140 ft | 243 kts | 211° |
| 2026-04-28 21:06 | 32.22460 | -84.02069 | 24139 ft | 243 kts | 211° |
| 2026-04-28 21:06 | 32.20899 | -84.02821 | 24139 ft | 243 kts | 211° |
| 2026-04-28 21:06 | 32.19318 | -84.03582 | 24140 ft | 243 kts | 211° |
| 2026-04-28 21:07 | 32.17736 | -84.04343 | 24138 ft | 244 kts | 211° |
| 2026-04-28 21:07 | 32.16181 | -84.05092 | 24132 ft | 244 kts | 211° |
| 2026-04-28 21:07 | 32.14672 | -84.05818 | 24127 ft | 245 kts | 211° |
| 2026-04-28 21:07 | 32.13085 | -84.06581 | 24123 ft | 246 kts | 211° |
| 2026-04-28 21:08 | 32.11479 | -84.07351 | 24123 ft | 246 kts | 211° |
| 2026-04-28 21:08 | 32.09877 | -84.08122 | 24126 ft | 246 kts | 211° |
| 2026-04-28 21:08 | 32.08284 | -84.08885 | 24128 ft | 246 kts | 211° |
| 2026-04-28 21:08 | 32.06712 | -84.09641 | 24128 ft | 247 kts | 211° |
| 2026-04-28 21:09 | 32.05104 | -84.10412 | 24126 ft | 247 kts | 211° |
| 2026-04-28 21:09 | 32.03518 | -84.11173 | 24125 ft | 247 kts | 211° |
| 2026-04-28 21:09 | 32.01894 | -84.11951 | 24123 ft | 247 kts | 211° |
| 2026-04-28 21:09 | 32.00306 | -84.12712 | 24118 ft | 247 kts | 211° |
| 2026-04-28 21:10 | 31.98719 | -84.13471 | 24119 ft | 247 kts | 211° |
| 2026-04-28 21:10 | 31.97125 | -84.14235 | 24117 ft | 247 kts | 211° |
| 2026-04-28 21:10 | 31.95511 | -84.15008 | 24117 ft | 247 kts | 211° |
| 2026-04-28 21:10 | 31.93917 | -84.15771 | 24115 ft | 247 kts | 211° |
| 2026-04-28 21:11 | 31.92330 | -84.16529 | 24115 ft | 247 kts | 211° |
| 2026-04-28 21:11 | 31.90725 | -84.17297 | 24113 ft | 248 kts | 211° |
| 2026-04-28 21:11 | 31.89166 | -84.18042 | 24106 ft | 248 kts | 210° |
| 2026-04-28 21:11 | 31.87600 | -84.18790 | 24104 ft | 248 kts | 210° |
| 2026-04-28 21:12 | 31.85975 | -84.19566 | 24102 ft | 248 kts | 210° |
| 2026-04-28 21:12 | 31.84396 | -84.20320 | 24103 ft | 248 kts | 210° |
| 2026-04-28 21:12 | 31.82795 | -84.21084 | 24104 ft | 247 kts | 211° |
| 2026-04-28 21:12 | 31.81198 | -84.21846 | 24103 ft | 248 kts | 210° |
| 2026-04-28 21:13 | 31.79582 | -84.22617 | 24103 ft | 248 kts | 210° |
| 2026-04-28 21:13 | 31.78000 | -84.23370 | 24104 ft | 248 kts | 210° |
| 2026-04-28 21:13 | 31.76397 | -84.24135 | 24102 ft | 248 kts | 211° |
| 2026-04-28 21:13 | 31.74788 | -84.24901 | 24104 ft | 248 kts | 210° |
| 2026-04-28 21:14 | 31.73194 | -84.25660 | 24107 ft | 247 kts | 211° |
| 2026-04-28 21:14 | 31.71595 | -84.26421 | 24107 ft | 248 kts | 211° |
| 2026-04-28 21:14 | 31.70004 | -84.27178 | 24109 ft | 248 kts | 211° |
| 2026-04-28 21:14 | 31.68408 | -84.27937 | 24111 ft | 248 kts | 211° |
| 2026-04-28 21:15 | 31.66887 | -84.28855 | 24107 ft | 239 kts | 224° |
| 2026-04-28 21:15 | 31.65710 | -84.30145 | 24106 ft | 229 kts | 239° |
| 2026-04-28 21:15 | 31.64897 | -84.31715 | 24107 ft | 221 kts | 253° |
| 2026-04-28 21:15 | 31.64345 | -84.33395 | 24110 ft | 219 kts | 257° |
| 2026-04-28 21:16 | 31.63862 | -84.35075 | 24113 ft | 218 kts | 258° |
| 2026-04-28 21:16 | 31.63413 | -84.36768 | 24110 ft | 218 kts | 258° |
| 2026-04-28 21:16 | 31.62959 | -84.38476 | 24105 ft | 218 kts | 258° |
| 2026-04-28 21:16 | 31.62505 | -84.40169 | 24104 ft | 219 kts | 258° |
| 2026-04-28 21:17 | 31.62042 | -84.41875 | 24105 ft | 219 kts | 258° |
| 2026-04-28 21:17 | 31.61576 | -84.43582 | 24104 ft | 219 kts | 258° |
| 2026-04-28 21:17 | 31.61116 | -84.45260 | 24100 ft | 219 kts | 258° |
| 2026-04-28 21:17 | 31.60648 | -84.46959 | 24105 ft | 218 kts | 258° |
| 2026-04-28 21:18 | 31.60179 | -84.48659 | 24102 ft | 218 kts | 258° |
| 2026-04-28 21:18 | 31.59712 | -84.50349 | 24102 ft | 218 kts | 258° |
| 2026-04-28 21:18 | 31.59240 | -84.52055 | 24101 ft | 218 kts | 258° |
| 2026-04-28 21:18 | 31.58775 | -84.53735 | 24100 ft | 218 kts | 258° |
| 2026-04-28 21:19 | 31.58303 | -84.55438 | 24097 ft | 219 kts | 258° |
| 2026-04-28 21:19 | 31.57835 | -84.57124 | 24097 ft | 219 kts | 258° |
| 2026-04-28 21:19 | 31.57364 | -84.58819 | 24095 ft | 219 kts | 258° |
| 2026-04-28 21:19 | 31.56897 | -84.60503 | 24090 ft | 219 kts | 258° |
| 2026-04-28 21:20 | 31.56426 | -84.62193 | 24088 ft | 218 kts | 258° |
| 2026-04-28 21:20 | 31.55953 | -84.63893 | 24088 ft | 218 kts | 258° |
| 2026-04-28 21:20 | 31.55481 | -84.65594 | 24092 ft | 218 kts | 257° |
| 2026-04-28 21:20 | 31.55007 | -84.67295 | 24096 ft | 218 kts | 257° |
| 2026-04-28 21:21 | 31.54534 | -84.68992 | 24099 ft | 218 kts | 257° |
| 2026-04-28 21:21 | 31.54059 | -84.70697 | 24099 ft | 219 kts | 257° |
| 2026-04-28 21:21 | 31.53591 | -84.72375 | 24097 ft | 219 kts | 257° |
| 2026-04-28 21:21 | 31.53112 | -84.74089 | 24102 ft | 219 kts | 257° |
| 2026-04-28 21:22 | 31.52644 | -84.75763 | 24105 ft | 219 kts | 257° |
| 2026-04-28 21:22 | 31.52165 | -84.77480 | 24105 ft | 219 kts | 257° |
| 2026-04-28 21:22 | 31.51695 | -84.79158 | 24108 ft | 219 kts | 257° |
| 2026-04-28 21:22 | 31.51219 | -84.80859 | 24107 ft | 219 kts | 257° |
| 2026-04-28 21:23 | 31.50743 | -84.82559 | 24108 ft | 219 kts | 257° |
| 2026-04-28 21:23 | 31.50270 | -84.84246 | 24109 ft | 219 kts | 257° |
| 2026-04-28 21:23 | 31.49792 | -84.85953 | 24109 ft | 219 kts | 258° |
| 2026-04-28 21:23 | 31.49320 | -84.87638 | 24109 ft | 219 kts | 258° |
| 2026-04-28 21:24 | 31.48843 | -84.89338 | 24110 ft | 219 kts | 258° |
| 2026-04-28 21:24 | 31.48368 | -84.91026 | 24109 ft | 219 kts | 257° |
| 2026-04-28 21:24 | 31.47890 | -84.92728 | 24109 ft | 219 kts | 257° |
| 2026-04-28 21:24 | 31.47415 | -84.94420 | 24113 ft | 219 kts | 257° |
| 2026-04-28 21:25 | 31.46945 | -84.96091 | 24114 ft | 218 kts | 257° |
| 2026-04-28 21:25 | 31.46464 | -84.97800 | 24113 ft | 218 kts | 257° |
| 2026-04-28 21:25 | 31.45992 | -84.99474 | 24111 ft | 218 kts | 257° |
| 2026-04-28 21:25 | 31.45516 | -85.01166 | 24109 ft | 218 kts | 257° |
| 2026-04-28 21:26 | 31.45038 | -85.02863 | 24108 ft | 219 kts | 257° |
| 2026-04-28 21:26 | 31.44564 | -85.04541 | 24104 ft | 219 kts | 257° |
| 2026-04-28 21:26 | 31.44084 | -85.06243 | 24102 ft | 219 kts | 257° |
| 2026-04-28 21:26 | 31.43609 | -85.07925 | 24098 ft | 219 kts | 258° |
| 2026-04-28 21:27 | 31.43132 | -85.09611 | 24100 ft | 218 kts | 257° |
| 2026-04-28 21:27 | 31.42657 | -85.11293 | 24099 ft | 218 kts | 257° |
| 2026-04-28 21:27 | 31.42179 | -85.12981 | 24101 ft | 218 kts | 257° |
| 2026-04-28 21:27 | 31.41700 | -85.14676 | 24097 ft | 218 kts | 257° |
| 2026-04-28 21:28 | 31.41223 | -85.16359 | 24091 ft | 218 kts | 257° |
| 2026-04-28 21:28 | 31.40749 | -85.18032 | 24089 ft | 218 kts | 257° |
| 2026-04-28 21:28 | 31.40272 | -85.19715 | 24088 ft | 217 kts | 257° |
| 2026-04-28 21:28 | 31.39796 | -85.21393 | 24089 ft | 217 kts | 257° |
| 2026-04-28 21:29 | 31.39322 | -85.23064 | 24089 ft | 217 kts | 257° |
| 2026-04-28 21:29 | 31.38849 | -85.24729 | 24089 ft | 216 kts | 257° |
| 2026-04-28 21:29 | 31.38374 | -85.26401 | 24093 ft | 216 kts | 258° |
| 2026-04-28 21:29 | 31.37901 | -85.28063 | 24095 ft | 216 kts | 258° |
| 2026-04-28 21:30 | 31.37426 | -85.29736 | 24097 ft | 216 kts | 257° |
| 2026-04-28 21:30 | 31.36948 | -85.31416 | 24099 ft | 216 kts | 257° |
| 2026-04-28 21:30 | 31.36473 | -85.33082 | 24097 ft | 216 kts | 258° |
| 2026-04-28 21:30 | 31.36000 | -85.34741 | 24096 ft | 216 kts | 258° |
| 2026-04-28 21:31 | 31.35524 | -85.36412 | 24098 ft | 216 kts | 258° |
| 2026-04-28 21:31 | 31.35047 | -85.38084 | 24100 ft | 216 kts | 257° |
| 2026-04-28 21:31 | 31.34572 | -85.39748 | 24101 ft | 216 kts | 257° |
| 2026-04-28 21:31 | 31.34099 | -85.41406 | 24104 ft | 216 kts | 257° |
| 2026-04-28 21:32 | 31.33620 | -85.43081 | 24108 ft | 216 kts | 258° |
| 2026-04-28 21:32 | 31.33139 | -85.44762 | 24108 ft | 216 kts | 257° |
| 2026-04-28 21:32 | 31.32664 | -85.46423 | 24106 ft | 216 kts | 257° |
| 2026-04-28 21:32 | 31.32189 | -85.48083 | 24103 ft | 216 kts | 257° |
| 2026-04-28 21:33 | 31.31716 | -85.49736 | 24103 ft | 216 kts | 258° |
| 2026-04-28 21:33 | 31.31237 | -85.51409 | 24101 ft | 216 kts | 257° |
| 2026-04-28 21:33 | 31.30759 | -85.53075 | 24101 ft | 216 kts | 258° |
| 2026-04-28 21:33 | 31.30285 | -85.54727 | 24101 ft | 215 kts | 258° |
| 2026-04-28 21:34 | 31.29808 | -85.56387 | 24098 ft | 215 kts | 258° |
| 2026-04-28 21:34 | 31.29328 | -85.58060 | 24098 ft | 215 kts | 257° |
| 2026-04-28 21:34 | 31.28854 | -85.59710 | 24098 ft | 215 kts | 258° |
| 2026-04-28 21:34 | 31.28382 | -85.61352 | 24098 ft | 215 kts | 257° |
| 2026-04-28 21:35 | 31.27905 | -85.63010 | 24097 ft | 214 kts | 257° |
| 2026-04-28 21:35 | 31.27433 | -85.64649 | 24094 ft | 214 kts | 258° |
| 2026-04-28 21:35 | 31.26950 | -85.66330 | 24104 ft | 214 kts | 257° |
| 2026-04-28 21:35 | 31.26472 | -85.67988 | 24103 ft | 215 kts | 257° |
| 2026-04-28 21:36 | 31.25995 | -85.69642 | 24102 ft | 215 kts | 257° |
| 2026-04-28 21:36 | 31.25516 | -85.71304 | 24100 ft | 215 kts | 257° |
| 2026-04-28 21:36 | 31.25037 | -85.72964 | 24100 ft | 216 kts | 257° |
| 2026-04-28 21:36 | 31.24554 | -85.74636 | 24100 ft | 216 kts | 257° |
| 2026-04-28 21:37 | 31.24074 | -85.76300 | 24102 ft | 216 kts | 257° |
| 2026-04-28 21:37 | 31.23592 | -85.77966 | 24104 ft | 217 kts | 257° |
| 2026-04-28 21:37 | 31.23113 | -85.79620 | 24104 ft | 216 kts | 257° |
| 2026-04-28 21:37 | 31.22626 | -85.81303 | 24106 ft | 216 kts | 257° |
| 2026-04-28 21:38 | 31.22145 | -85.82964 | 24105 ft | 216 kts | 257° |
| 2026-04-28 21:38 | 31.21664 | -85.84623 | 24104 ft | 216 kts | 257° |
| 2026-04-28 21:38 | 31.21182 | -85.86290 | 24105 ft | 216 kts | 257° |
| 2026-04-28 21:38 | 31.20703 | -85.87942 | 24105 ft | 216 kts | 257° |
| 2026-04-28 21:39 | 31.20220 | -85.89606 | 24105 ft | 216 kts | 257° |
| 2026-04-28 21:39 | 31.19740 | -85.91257 | 24104 ft | 216 kts | 257° |
| 2026-04-28 21:39 | 31.19258 | -85.92919 | 24103 ft | 216 kts | 257° |
| 2026-04-28 21:39 | 31.18773 | -85.94585 | 24103 ft | 216 kts | 257° |
| 2026-04-28 21:40 | 31.18292 | -85.96240 | 24099 ft | 216 kts | 257° |
| 2026-04-28 21:40 | 31.17809 | -85.97900 | 24095 ft | 215 kts | 257° |
| 2026-04-28 21:40 | 31.17328 | -85.99549 | 24092 ft | 215 kts | 257° |
| 2026-04-28 21:40 | 31.16848 | -86.01198 | 23949 ft | 221 kts | 257° |
| 2026-04-28 21:41 | 31.16340 | -86.02948 | 23569 ft | 233 kts | 256° |
| 2026-04-28 21:41 | 31.15807 | -86.04775 | 23193 ft | 241 kts | 256° |
| 2026-04-28 21:41 | 31.15268 | -86.06616 | 22866 ft | 245 kts | 256° |
| 2026-04-28 21:41 | 31.14710 | -86.08526 | 22539 ft | 249 kts | 256° |
| 2026-04-28 21:42 | 31.14154 | -86.10426 | 22222 ft | 251 kts | 256° |
| 2026-04-28 21:42 | 31.13591 | -86.12357 | 21899 ft | 253 kts | 256° |
| 2026-04-28 21:42 | 31.13017 | -86.14313 | 21573 ft | 254 kts | 255° |
| 2026-04-28 21:42 | 31.12448 | -86.16260 | 21254 ft | 255 kts | 255° |
| 2026-04-28 21:43 | 31.11869 | -86.18237 | 20928 ft | 256 kts | 255° |
| 2026-04-28 21:43 | 31.11296 | -86.20191 | 20608 ft | 257 kts | 255° |
| 2026-04-28 21:43 | 31.10714 | -86.22176 | 20286 ft | 257 kts | 255° |
| 2026-04-28 21:43 | 31.10141 | -86.24129 | 19970 ft | 257 kts | 255° |
| 2026-04-28 21:44 | 31.09557 | -86.26119 | 19647 ft | 258 kts | 255° |
| 2026-04-28 21:44 | 31.08973 | -86.28104 | 19325 ft | 258 kts | 255° |
| 2026-04-28 21:44 | 31.08397 | -86.30064 | 19005 ft | 258 kts | 255° |
| 2026-04-28 21:44 | 31.07814 | -86.32046 | 18682 ft | 258 kts | 255° |
| 2026-04-28 21:45 | 31.07232 | -86.34024 | 18363 ft | 259 kts | 255° |
| 2026-04-28 21:45 | 31.06647 | -86.36009 | 18044 ft | 258 kts | 255° |
| 2026-04-28 21:45 | 31.06067 | -86.37978 | 17731 ft | 259 kts | 255° |
| 2026-04-28 21:45 | 31.05475 | -86.39980 | 17400 ft | 259 kts | 255° |
| 2026-04-28 21:46 | 31.04891 | -86.41964 | 17072 ft | 259 kts | 254° |
| 2026-04-28 21:46 | 31.04309 | -86.43936 | 16975 ft | 251 kts | 254° |
| 2026-04-28 21:46 | 31.03737 | -86.45875 | 16601 ft | 256 kts | 254° |
| 2026-04-28 21:46 | 31.03155 | -86.47836 | 16231 ft | 259 kts | 254° |
| 2026-04-28 21:47 | 31.02559 | -86.49850 | 15853 ft | 261 kts | 254° |
| 2026-04-28 21:47 | 31.01967 | -86.51849 | 15485 ft | 262 kts | 254° |
| 2026-04-28 21:47 | 31.01370 | -86.53856 | 15114 ft | 264 kts | 254° |
| 2026-04-28 21:47 | 31.00766 | -86.55898 | 14741 ft | 265 kts | 253° |
| 2026-04-28 21:48 | 31.00172 | -86.57902 | 14374 ft | 265 kts | 254° |
| 2026-04-28 21:48 | 30.99569 | -86.59934 | 14004 ft | 266 kts | 253° |
| 2026-04-28 21:48 | 30.98962 | -86.61979 | 13639 ft | 267 kts | 253° |
| 2026-04-28 21:48 | 30.98359 | -86.64008 | 13299 ft | 267 kts | 253° |
| 2026-04-28 21:49 | 30.97751 | -86.66054 | 12962 ft | 264 kts | 253° |
| 2026-04-28 21:49 | 30.97172 | -86.68005 | 12636 ft | 261 kts | 252° |
| 2026-04-28 21:49 | 30.96582 | -86.69987 | 12298 ft | 260 kts | 252° |
| 2026-04-28 21:49 | 30.95987 | -86.71980 | 11955 ft | 259 kts | 252° |
| 2026-04-28 21:50 | 30.95399 | -86.73949 | 11624 ft | 259 kts | 252° |
| 2026-04-28 21:50 | 30.94801 | -86.75948 | 11286 ft | 259 kts | 252° |
| 2026-04-28 21:50 | 30.94214 | -86.77914 | 10952 ft | 259 kts | 252° |
| 2026-04-28 21:50 | 30.93624 | -86.79894 | 10619 ft | 259 kts | 252° |
| 2026-04-28 21:51 | 30.93026 | -86.81889 | 10283 ft | 260 kts | 252° |
| 2026-04-28 21:51 | 30.92433 | -86.83871 | 9945 ft | 260 kts | 252° |
| 2026-04-28 21:51 | 30.91838 | -86.85857 | 9602 ft | 260 kts | 252° |
| 2026-04-28 21:51 | 30.91245 | -86.87843 | 9272 ft | 260 kts | 252° |
| 2026-04-28 21:52 | 30.90648 | -86.89831 | 8937 ft | 259 kts | 252° |
| 2026-04-28 21:52 | 30.90061 | -86.91798 | 8604 ft | 257 kts | 252° |
| 2026-04-28 21:52 | 30.89475 | -86.93748 | 8268 ft | 256 kts | 251° |
| 2026-04-28 21:52 | 30.88888 | -86.95698 | 7933 ft | 256 kts | 251° |
| 2026-04-28 21:53 | 30.88305 | -86.97639 | 7601 ft | 255 kts | 251° |
| 2026-04-28 21:53 | 30.87717 | -86.99597 | 7264 ft | 256 kts | 251° |
| 2026-04-28 21:53 | 30.87125 | -87.01560 | 6927 ft | 256 kts | 251° |
| 2026-04-28 21:53 | 30.86545 | -87.03494 | 6597 ft | 255 kts | 251° |
| 2026-04-28 21:54 | 30.85957 | -87.05442 | 6263 ft | 253 kts | 251° |
| 2026-04-28 21:54 | 30.85392 | -87.07342 | 5926 ft | 246 kts | 250° |
| 2026-04-28 21:54 | 30.84833 | -87.09185 | 5590 ft | 239 kts | 251° |
| 2026-04-28 21:54 | 30.84288 | -87.10995 | 5270 ft | 234 kts | 250° |
| 2026-04-28 21:55 | 30.83751 | -87.12767 | 4961 ft | 231 kts | 250° |
| 2026-04-28 21:55 | 30.83228 | -87.14496 | 4659 ft | 229 kts | 249° |
| 2026-04-28 21:55 | 30.82699 | -87.16243 | 4352 ft | 228 kts | 249° |
| 2026-04-28 21:55 | 30.82172 | -87.17986 | 4037 ft | 227 kts | 249° |
| 2026-04-28 21:56 | 30.81648 | -87.19711 | 3728 ft | 226 kts | 248° |
| 2026-04-28 21:56 | 30.81130 | -87.21424 | 3422 ft | 226 kts | 248° |
| 2026-04-28 21:56 | 30.80605 | -87.23154 | 3114 ft | 225 kts | 247° |
| 2026-04-28 21:56 | 30.80005 | -87.24812 | 2962 ft | 215 kts | 234° |
| 2026-04-28 21:57 | 30.78987 | -87.25990 | 2956 ft | 202 kts | 212° |
| 2026-04-28 21:57 | 30.77728 | -87.26599 | 2952 ft | 193 kts | 189° |
| 2026-04-28 21:57 | 30.76401 | -87.26586 | 2951 ft | 188 kts | 169° |
| 2026-04-28 21:57 | 30.75122 | -87.26287 | 2952 ft | 186 kts | 168° |
| 2026-04-28 21:58 | 30.73861 | -87.25943 | 2953 ft | 184 kts | 166° |
| 2026-04-28 21:58 | 30.72608 | -87.25595 | 2952 ft | 183 kts | 167° |
| 2026-04-28 21:58 | 30.71372 | -87.25253 | 2952 ft | 182 kts | 167° |
| 2026-04-28 21:58 | 30.70119 | -87.24914 | 2952 ft | 182 kts | 167° |
| 2026-04-28 21:59 | 30.68893 | -87.24580 | 2956 ft | 182 kts | 167° |
| 2026-04-28 21:59 | 30.67641 | -87.24242 | 2854 ft | 187 kts | 167° |
| 2026-04-28 21:59 | 30.66371 | -87.23904 | 2683 ft | 183 kts | 167° |
| 2026-04-28 22:00 | 30.63987 | -87.23262 | 2554 ft | 167 kts | 167° |
| 2026-04-28 22:00 | 30.62865 | -87.22961 | 2553 ft | 163 kts | 167° |
| 2026-04-28 22:00 | 30.61769 | -87.22667 | 2555 ft | 160 kts | 167° |
| 2026-04-28 22:00 | 30.60680 | -87.22374 | 2480 ft | 163 kts | 167° |
| 2026-04-28 22:01 | 30.59555 | -87.22074 | 2289 ft | 170 kts | 167° |
| 2026-04-28 22:01 | 30.58372 | -87.21758 | 2077 ft | 175 kts | 167° |
| 2026-04-28 22:01 | 30.57227 | -87.21453 | 1863 ft | 165 kts | 167° |
| 2026-04-28 22:01 | 30.56156 | -87.21167 | 1657 ft | 144 kts | 167° |
| 2026-04-28 22:02 | 30.55300 | -87.20937 | 1476 ft | 110 kts | 167° |
| 2026-04-28 22:02 | 30.54572 | -87.20740 | 1363 ft | 106 kts | 166° |
| 2026-04-28 22:02 | 30.53861 | -87.20553 | 1235 ft | 101 kts | 166° |
| 2026-04-28 22:02 | 30.53177 | -87.20370 | 1102 ft | 99 kts | 165° |
| 2026-04-28 22:03 | 30.52513 | -87.20194 | 975 ft | 98 kts | 164° |
| 2026-04-28 22:03 | 30.51844 | -87.20013 | 849 ft | 97 kts | 164° |
| 2026-04-28 22:03 | 30.51184 | -87.19836 | 716 ft | 98 kts | 163° |
| 2026-04-28 22:03 | 30.50560 | -87.19671 | 601 ft | 80 kts | 165° |
| 2026-04-28 22:04 | 30.50055 | -87.19547 | 487 ft | 74 kts | 162° |
| 2026-04-28 22:04 | 30.49539 | -87.19403 | 405 ft | 77 kts | 163° |
| 2026-04-28 22:04 | 30.49045 | -87.19269 | 305 ft | 76 kts | 161° |
| 2026-04-28 22:04 | 30.48515 | -87.19125 | 226 ft | 81 kts | 161° |
| 2026-04-28 22:05 | 30.48010 | -87.18994 | 124 ft | 61 kts | 162° |
| 2026-04-28 22:05 | 30.47720 | -87.18910 | 123 ft | 30 kts | 172° |
| 2026-04-28 22:05 | 30.47547 | -87.18870 | 123 ft | 20 kts | 166° |
| 2026-04-28 22:05 | 30.47371 | -87.18822 | 123 ft | 29 kts | 168° |
| 2026-04-28 22:06 | 30.47163 | -87.18765 | 123 ft | 30 kts | 166° |
| 2026-04-28 22:06 | 30.46959 | -87.18711 | 123 ft | 29 kts | 166° |
| 2026-04-28 22:06 | 30.46757 | -87.18655 | 123 ft | 28 kts | 168° |
| 2026-04-28 22:06 | 30.46668 | -87.18588 | 123 ft | 12 kts | 78° |
| 2026-04-28 22:07 | 30.46687 | -87.18490 | 123 ft | 11 kts | 78° |
| 2026-04-28 22:07 | 30.46705 | -87.18398 | 123 ft | 11 kts | 83° |
| 2026-04-28 22:07 | 30.46725 | -87.18301 | 123 ft | 14 kts | 75° |
| 2026-04-28 22:07 | 30.46765 | -87.18214 | 123 ft | 10 kts | 349° |
| 2026-04-28 22:08 | 30.46846 | -87.18237 | 123 ft | 14 kts | 351° |
| 2026-04-28 22:08 | 30.46927 | -87.18245 | 123 ft | 8 kts | 57° |
| 2026-04-28 22:08 | 30.46932 | -87.18224 | 123 ft | 1 kts | 81° |